<?xml version="1.0" encoding="UTF-8" standalone="no" ?>
<gpx xmlns="http://www.topografix.com/GPX/1/1" xmlns:xsi="http://www.w3.org/2001/XMLSchema-instance" xsi:schemaLocation="http://www.topografix.com/GPX/1/1 http://www.topografix.com/GPX/1/1/gpx.xsd" version="1.1" creator="VisuGPX - https://www.visugpx.com">
  <metadata>
    <name>Rando : Gigors tete de la Plane</name>
    <desc><![CDATA[Un circuit ombragé proposé par l'OT des Hautes Terres de Provence]]></desc>
  </metadata>
  <trk>
    <name><![CDATA[Gigors tete de la Plane]]></name>
    <trkseg>
      <trkpt lat="44.41845" lon="6.16066">
        <ele>915</ele>
        <time>2017-08-18T09:12:48Z</time>
      </trkpt>
      <trkpt lat="44.41845" lon="6.16066">
        <ele>915</ele>
        <time>2017-08-18T09:12:49Z</time>
      </trkpt>
      <trkpt lat="44.41852" lon="6.16056">
        <ele>915</ele>
        <time>2017-08-18T09:13:16Z</time>
      </trkpt>
      <trkpt lat="44.41834" lon="6.16073">
        <ele>913</ele>
        <time>2017-08-18T09:13:35Z</time>
      </trkpt>
      <trkpt lat="44.41822" lon="6.1607">
        <ele>912</ele>
        <time>2017-08-18T09:13:44Z</time>
      </trkpt>
      <trkpt lat="44.4182" lon="6.16065">
        <ele>911</ele>
        <time>2017-08-18T09:13:48Z</time>
      </trkpt>
      <trkpt lat="44.41802" lon="6.16061">
        <ele>911</ele>
        <time>2017-08-18T09:14:00Z</time>
      </trkpt>
      <trkpt lat="44.41809" lon="6.16033">
        <ele>911</ele>
        <time>2017-08-18T09:14:19Z</time>
      </trkpt>
      <trkpt lat="44.41826" lon="6.16026">
        <ele>910</ele>
        <time>2017-08-18T09:14:34Z</time>
      </trkpt>
      <trkpt lat="44.41824" lon="6.16019">
        <ele>909</ele>
        <time>2017-08-18T09:14:40Z</time>
      </trkpt>
      <trkpt lat="44.41823" lon="6.16014">
        <ele>909</ele>
        <time>2017-08-18T09:14:43Z</time>
      </trkpt>
      <trkpt lat="44.41824" lon="6.16011">
        <ele>909</ele>
        <time>2017-08-18T09:14:45Z</time>
      </trkpt>
      <trkpt lat="44.41812" lon="6.16002">
        <ele>908</ele>
        <time>2017-08-18T09:14:54Z</time>
      </trkpt>
      <trkpt lat="44.41809" lon="6.15996">
        <ele>908</ele>
        <time>2017-08-18T09:14:58Z</time>
      </trkpt>
      <trkpt lat="44.41796" lon="6.15985">
        <ele>907</ele>
        <time>2017-08-18T09:15:15Z</time>
      </trkpt>
      <trkpt lat="44.41787" lon="6.15978">
        <ele>906</ele>
        <time>2017-08-18T09:15:22Z</time>
      </trkpt>
      <trkpt lat="44.4178" lon="6.1597">
        <ele>905</ele>
        <time>2017-08-18T09:15:28Z</time>
      </trkpt>
      <trkpt lat="44.41777" lon="6.15969">
        <ele>903</ele>
        <time>2017-08-18T09:15:34Z</time>
      </trkpt>
      <trkpt lat="44.41769" lon="6.15967">
        <ele>902</ele>
        <time>2017-08-18T09:15:40Z</time>
      </trkpt>
      <trkpt lat="44.41751" lon="6.15964">
        <ele>899</ele>
        <time>2017-08-18T09:15:57Z</time>
      </trkpt>
      <trkpt lat="44.41733" lon="6.15954">
        <ele>898</ele>
        <time>2017-08-18T09:16:13Z</time>
      </trkpt>
      <trkpt lat="44.4172" lon="6.15937">
        <ele>896</ele>
        <time>2017-08-18T09:16:28Z</time>
      </trkpt>
      <trkpt lat="44.41714" lon="6.15932">
        <ele>895</ele>
        <time>2017-08-18T09:16:41Z</time>
      </trkpt>
      <trkpt lat="44.41719" lon="6.15931">
        <ele>894</ele>
        <time>2017-08-18T09:17:02Z</time>
      </trkpt>
      <trkpt lat="44.41705" lon="6.15929">
        <ele>894</ele>
        <time>2017-08-18T09:17:25Z</time>
      </trkpt>
      <trkpt lat="44.41703" lon="6.15931">
        <ele>894</ele>
        <time>2017-08-18T09:17:40Z</time>
      </trkpt>
      <trkpt lat="44.41703" lon="6.15933">
        <ele>894</ele>
        <time>2017-08-18T09:17:58Z</time>
      </trkpt>
      <trkpt lat="44.41715" lon="6.15929">
        <ele>894</ele>
        <time>2017-08-18T09:18:37Z</time>
      </trkpt>
      <trkpt lat="44.41714" lon="6.15932">
        <ele>895</ele>
        <time>2017-08-18T09:18:53Z</time>
      </trkpt>
      <trkpt lat="44.41713" lon="6.15932">
        <ele>895</ele>
        <time>2017-08-18T09:19:00Z</time>
      </trkpt>
      <trkpt lat="44.41705" lon="6.15932">
        <ele>894</ele>
        <time>2017-08-18T09:19:14Z</time>
      </trkpt>
      <trkpt lat="44.41688" lon="6.15934">
        <ele>896</ele>
        <time>2017-08-18T09:19:35Z</time>
      </trkpt>
      <trkpt lat="44.41678" lon="6.15926">
        <ele>899</ele>
        <time>2017-08-18T09:19:57Z</time>
      </trkpt>
      <trkpt lat="44.41676" lon="6.15915">
        <ele>902</ele>
        <time>2017-08-18T09:20:15Z</time>
      </trkpt>
      <trkpt lat="44.41667" lon="6.15901">
        <ele>905</ele>
        <time>2017-08-18T09:20:36Z</time>
      </trkpt>
      <trkpt lat="44.41672" lon="6.15895">
        <ele>907</ele>
        <time>2017-08-18T09:20:50Z</time>
      </trkpt>
      <trkpt lat="44.41683" lon="6.15878">
        <ele>910</ele>
        <time>2017-08-18T09:21:15Z</time>
      </trkpt>
      <trkpt lat="44.41679" lon="6.15875">
        <ele>913</ele>
        <time>2017-08-18T09:21:36Z</time>
      </trkpt>
      <trkpt lat="44.41668" lon="6.15879">
        <ele>915</ele>
        <time>2017-08-18T09:22:03Z</time>
      </trkpt>
      <trkpt lat="44.41658" lon="6.15887">
        <ele>918</ele>
        <time>2017-08-18T09:22:26Z</time>
      </trkpt>
      <trkpt lat="44.41649" lon="6.15891">
        <ele>920</ele>
        <time>2017-08-18T09:22:49Z</time>
      </trkpt>
      <trkpt lat="44.41639" lon="6.1589">
        <ele>923</ele>
        <time>2017-08-18T09:23:14Z</time>
      </trkpt>
      <trkpt lat="44.41634" lon="6.15879">
        <ele>926</ele>
        <time>2017-08-18T09:23:35Z</time>
      </trkpt>
      <trkpt lat="44.41642" lon="6.15869">
        <ele>928</ele>
        <time>2017-08-18T09:23:55Z</time>
      </trkpt>
      <trkpt lat="44.41639" lon="6.15872">
        <ele>931</ele>
        <time>2017-08-18T09:24:15Z</time>
      </trkpt>
      <trkpt lat="44.41636" lon="6.15882">
        <ele>931</ele>
        <time>2017-08-18T09:24:34Z</time>
      </trkpt>
      <trkpt lat="44.41637" lon="6.15888">
        <ele>931</ele>
        <time>2017-08-18T09:24:45Z</time>
      </trkpt>
      <trkpt lat="44.41628" lon="6.15888">
        <ele>932</ele>
        <time>2017-08-18T09:24:51Z</time>
      </trkpt>
      <trkpt lat="44.41625" lon="6.15906">
        <ele>934</ele>
        <time>2017-08-18T09:25:13Z</time>
      </trkpt>
      <trkpt lat="44.41624" lon="6.15907">
        <ele>934</ele>
        <time>2017-08-18T09:25:14Z</time>
      </trkpt>
      <trkpt lat="44.41621" lon="6.15925">
        <ele>937</ele>
        <time>2017-08-18T09:25:33Z</time>
      </trkpt>
      <trkpt lat="44.41619" lon="6.15936">
        <ele>940</ele>
        <time>2017-08-18T09:25:54Z</time>
      </trkpt>
      <trkpt lat="44.41615" lon="6.15948">
        <ele>943</ele>
        <time>2017-08-18T09:26:17Z</time>
      </trkpt>
      <trkpt lat="44.41602" lon="6.15962">
        <ele>946</ele>
        <time>2017-08-18T09:26:41Z</time>
      </trkpt>
      <trkpt lat="44.41596" lon="6.15973">
        <ele>948</ele>
        <time>2017-08-18T09:27:02Z</time>
      </trkpt>
      <trkpt lat="44.41582" lon="6.15979">
        <ele>950</ele>
        <time>2017-08-18T09:27:26Z</time>
      </trkpt>
      <trkpt lat="44.41571" lon="6.15973">
        <ele>953</ele>
        <time>2017-08-18T09:27:46Z</time>
      </trkpt>
      <trkpt lat="44.41571" lon="6.15967">
        <ele>956</ele>
        <time>2017-08-18T09:28:07Z</time>
      </trkpt>
      <trkpt lat="44.41563" lon="6.15959">
        <ele>959</ele>
        <time>2017-08-18T09:28:31Z</time>
      </trkpt>
      <trkpt lat="44.41563" lon="6.15948">
        <ele>962</ele>
        <time>2017-08-18T09:28:54Z</time>
      </trkpt>
      <trkpt lat="44.41562" lon="6.15939">
        <ele>965</ele>
        <time>2017-08-18T09:29:15Z</time>
      </trkpt>
      <trkpt lat="44.41558" lon="6.15928">
        <ele>968</ele>
        <time>2017-08-18T09:29:38Z</time>
      </trkpt>
      <trkpt lat="44.4156" lon="6.15911">
        <ele>970</ele>
        <time>2017-08-18T09:30:05Z</time>
      </trkpt>
      <trkpt lat="44.41563" lon="6.15889">
        <ele>973</ele>
        <time>2017-08-18T09:30:32Z</time>
      </trkpt>
      <trkpt lat="44.41557" lon="6.15877">
        <ele>975</ele>
        <time>2017-08-18T09:30:55Z</time>
      </trkpt>
      <trkpt lat="44.41556" lon="6.15874">
        <ele>976</ele>
        <time>2017-08-18T09:31:01Z</time>
      </trkpt>
      <trkpt lat="44.41547" lon="6.15855">
        <ele>978</ele>
        <time>2017-08-18T09:31:25Z</time>
      </trkpt>
      <trkpt lat="44.41537" lon="6.1584">
        <ele>981</ele>
        <time>2017-08-18T09:31:48Z</time>
      </trkpt>
      <trkpt lat="44.4153" lon="6.15824">
        <ele>983</ele>
        <time>2017-08-18T09:32:14Z</time>
      </trkpt>
      <trkpt lat="44.41523" lon="6.15808">
        <ele>987</ele>
        <time>2017-08-18T09:32:38Z</time>
      </trkpt>
      <trkpt lat="44.41511" lon="6.15792">
        <ele>989</ele>
        <time>2017-08-18T09:33:04Z</time>
      </trkpt>
      <trkpt lat="44.41508" lon="6.15782">
        <ele>992</ele>
        <time>2017-08-18T09:33:29Z</time>
      </trkpt>
      <trkpt lat="44.41506" lon="6.15767">
        <ele>994</ele>
        <time>2017-08-18T09:33:50Z</time>
      </trkpt>
      <trkpt lat="44.41504" lon="6.15756">
        <ele>997</ele>
        <time>2017-08-18T09:34:09Z</time>
      </trkpt>
      <trkpt lat="44.41512" lon="6.15742">
        <ele>1000</ele>
        <time>2017-08-18T09:34:41Z</time>
      </trkpt>
      <trkpt lat="44.41513" lon="6.15739">
        <ele>1000</ele>
        <time>2017-08-18T09:34:46Z</time>
      </trkpt>
      <trkpt lat="44.41518" lon="6.15714">
        <ele>1003</ele>
        <time>2017-08-18T09:35:11Z</time>
      </trkpt>
      <trkpt lat="44.41515" lon="6.15708">
        <ele>1004</ele>
        <time>2017-08-18T09:35:24Z</time>
      </trkpt>
      <trkpt lat="44.41511" lon="6.15705">
        <ele>1004</ele>
        <time>2017-08-18T09:35:43Z</time>
      </trkpt>
      <trkpt lat="44.41511" lon="6.15704">
        <ele>1004</ele>
        <time>2017-08-18T09:35:45Z</time>
      </trkpt>
      <trkpt lat="44.41528" lon="6.15699">
        <ele>1004</ele>
        <time>2017-08-18T09:36:20Z</time>
      </trkpt>
      <trkpt lat="44.41531" lon="6.15702">
        <ele>1004</ele>
        <time>2017-08-18T09:36:32Z</time>
      </trkpt>
      <trkpt lat="44.41539" lon="6.15703">
        <ele>1004</ele>
        <time>2017-08-18T09:36:49Z</time>
      </trkpt>
      <trkpt lat="44.41539" lon="6.15703">
        <ele>1004</ele>
        <time>2017-08-18T09:36:50Z</time>
      </trkpt>
      <trkpt lat="44.41533" lon="6.15699">
        <ele>1006</ele>
        <time>2017-08-18T09:37:13Z</time>
      </trkpt>
      <trkpt lat="44.41531" lon="6.15688">
        <ele>1009</ele>
        <time>2017-08-18T09:37:35Z</time>
      </trkpt>
      <trkpt lat="44.41539" lon="6.15676">
        <ele>1012</ele>
        <time>2017-08-18T09:37:58Z</time>
      </trkpt>
      <trkpt lat="44.41531" lon="6.1567">
        <ele>1015</ele>
        <time>2017-08-18T09:38:19Z</time>
      </trkpt>
      <trkpt lat="44.41524" lon="6.15665">
        <ele>1017</ele>
        <time>2017-08-18T09:38:39Z</time>
      </trkpt>
      <trkpt lat="44.41512" lon="6.1566">
        <ele>1020</ele>
        <time>2017-08-18T09:39:04Z</time>
      </trkpt>
      <trkpt lat="44.41504" lon="6.15658">
        <ele>1022</ele>
        <time>2017-08-18T09:39:20Z</time>
      </trkpt>
      <trkpt lat="44.41495" lon="6.15653">
        <ele>1024</ele>
        <time>2017-08-18T09:39:41Z</time>
      </trkpt>
      <trkpt lat="44.41481" lon="6.15657">
        <ele>1027</ele>
        <time>2017-08-18T09:40:06Z</time>
      </trkpt>
      <trkpt lat="44.41476" lon="6.15661">
        <ele>1030</ele>
        <time>2017-08-18T09:40:31Z</time>
      </trkpt>
      <trkpt lat="44.41458" lon="6.15665">
        <ele>1033</ele>
        <time>2017-08-18T09:40:58Z</time>
      </trkpt>
      <trkpt lat="44.41449" lon="6.15669">
        <ele>1036</ele>
        <time>2017-08-18T09:41:24Z</time>
      </trkpt>
      <trkpt lat="44.41444" lon="6.15675">
        <ele>1039</ele>
        <time>2017-08-18T09:41:50Z</time>
      </trkpt>
      <trkpt lat="44.41436" lon="6.1568">
        <ele>1043</ele>
        <time>2017-08-18T09:42:15Z</time>
      </trkpt>
      <trkpt lat="44.4143" lon="6.15686">
        <ele>1044</ele>
        <time>2017-08-18T09:42:30Z</time>
      </trkpt>
      <trkpt lat="44.41451" lon="6.15698">
        <ele>1047</ele>
        <time>2017-08-18T09:42:52Z</time>
      </trkpt>
      <trkpt lat="44.41467" lon="6.15704">
        <ele>1048</ele>
        <time>2017-08-18T09:43:00Z</time>
      </trkpt>
      <trkpt lat="44.41492" lon="6.15717">
        <ele>1050</ele>
        <time>2017-08-18T09:43:14Z</time>
      </trkpt>
      <trkpt lat="44.41497" lon="6.15724">
        <ele>1051</ele>
        <time>2017-08-18T09:43:21Z</time>
      </trkpt>
      <trkpt lat="44.41527" lon="6.15742">
        <ele>1053</ele>
        <time>2017-08-18T09:43:41Z</time>
      </trkpt>
      <trkpt lat="44.41543" lon="6.15747">
        <ele>1054</ele>
        <time>2017-08-18T09:43:51Z</time>
      </trkpt>
      <trkpt lat="44.41547" lon="6.15759">
        <ele>1057</ele>
        <time>2017-08-18T09:44:11Z</time>
      </trkpt>
      <trkpt lat="44.41547" lon="6.15763">
        <ele>1059</ele>
        <time>2017-08-18T09:44:36Z</time>
      </trkpt>
      <trkpt lat="44.41553" lon="6.15763">
        <ele>1061</ele>
        <time>2017-08-18T09:44:47Z</time>
      </trkpt>
      <trkpt lat="44.41537" lon="6.1576">
        <ele>1063</ele>
        <time>2017-08-18T09:45:02Z</time>
      </trkpt>
      <trkpt lat="44.41558" lon="6.15758">
        <ele>1066</ele>
        <time>2017-08-18T09:45:26Z</time>
      </trkpt>
      <trkpt lat="44.41536" lon="6.15747">
        <ele>1068</ele>
        <time>2017-08-18T09:45:40Z</time>
      </trkpt>
      <trkpt lat="44.41523" lon="6.15733">
        <ele>1068</ele>
        <time>2017-08-18T09:46:00Z</time>
      </trkpt>
      <trkpt lat="44.41502" lon="6.15726">
        <ele>1068</ele>
        <time>2017-08-18T09:46:11Z</time>
      </trkpt>
      <trkpt lat="44.41558" lon="6.15745">
        <ele>1069</ele>
        <time>2017-08-18T09:46:26Z</time>
      </trkpt>
      <trkpt lat="44.41527" lon="6.15733">
        <ele>1069</ele>
        <time>2017-08-18T09:46:50Z</time>
      </trkpt>
      <trkpt lat="44.41498" lon="6.15723">
        <ele>1069</ele>
        <time>2017-08-18T09:46:52Z</time>
      </trkpt>
      <trkpt lat="44.41453" lon="6.15707">
        <ele>1069</ele>
        <time>2017-08-18T09:47:01Z</time>
      </trkpt>
      <trkpt lat="44.41427" lon="6.15699">
        <ele>1069</ele>
        <time>2017-08-18T09:47:11Z</time>
      </trkpt>
      <trkpt lat="44.41407" lon="6.15696">
        <ele>1069</ele>
        <time>2017-08-18T09:47:24Z</time>
      </trkpt>
      <trkpt lat="44.41394" lon="6.15696">
        <ele>1069</ele>
        <time>2017-08-18T09:47:31Z</time>
      </trkpt>
      <trkpt lat="44.41354" lon="6.15688">
        <ele>1069</ele>
        <time>2017-08-18T09:47:47Z</time>
      </trkpt>
      <trkpt lat="44.41311" lon="6.15687">
        <ele>1072</ele>
        <time>2017-08-18T09:48:06Z</time>
      </trkpt>
      <trkpt lat="44.41334" lon="6.15701">
        <ele>1073</ele>
        <time>2017-08-18T09:48:19Z</time>
      </trkpt>
      <trkpt lat="44.41328" lon="6.15702">
        <ele>1075</ele>
        <time>2017-08-18T09:48:31Z</time>
      </trkpt>
      <trkpt lat="44.41321" lon="6.15703">
        <ele>1076</ele>
        <time>2017-08-18T09:48:44Z</time>
      </trkpt>
      <trkpt lat="44.41333" lon="6.15707">
        <ele>1077</ele>
        <time>2017-08-18T09:48:55Z</time>
      </trkpt>
      <trkpt lat="44.41343" lon="6.15714">
        <ele>1079</ele>
        <time>2017-08-18T09:49:09Z</time>
      </trkpt>
      <trkpt lat="44.41326" lon="6.15722">
        <ele>1080</ele>
        <time>2017-08-18T09:49:20Z</time>
      </trkpt>
      <trkpt lat="44.41325" lon="6.15728">
        <ele>1082</ele>
        <time>2017-08-18T09:49:37Z</time>
      </trkpt>
      <trkpt lat="44.41324" lon="6.15726">
        <ele>1083</ele>
        <time>2017-08-18T09:49:44Z</time>
      </trkpt>
      <trkpt lat="44.4132" lon="6.1572">
        <ele>1084</ele>
        <time>2017-08-18T09:49:57Z</time>
      </trkpt>
      <trkpt lat="44.41318" lon="6.15713">
        <ele>1086</ele>
        <time>2017-08-18T09:50:11Z</time>
      </trkpt>
      <trkpt lat="44.41328" lon="6.15718">
        <ele>1088</ele>
        <time>2017-08-18T09:50:26Z</time>
      </trkpt>
      <trkpt lat="44.41318" lon="6.15717">
        <ele>1089</ele>
        <time>2017-08-18T09:50:38Z</time>
      </trkpt>
      <trkpt lat="44.41307" lon="6.15712">
        <ele>1091</ele>
        <time>2017-08-18T09:50:52Z</time>
      </trkpt>
      <trkpt lat="44.41299" lon="6.15706">
        <ele>1092</ele>
        <time>2017-08-18T09:51:01Z</time>
      </trkpt>
      <trkpt lat="44.4129" lon="6.15713">
        <ele>1093</ele>
        <time>2017-08-18T09:51:14Z</time>
      </trkpt>
      <trkpt lat="44.41297" lon="6.15714">
        <ele>1093</ele>
        <time>2017-08-18T09:51:19Z</time>
      </trkpt>
      <trkpt lat="44.41291" lon="6.1571">
        <ele>1095</ele>
        <time>2017-08-18T09:51:30Z</time>
      </trkpt>
      <trkpt lat="44.41269" lon="6.15704">
        <ele>1096</ele>
        <time>2017-08-18T09:51:43Z</time>
      </trkpt>
      <trkpt lat="44.41275" lon="6.15711">
        <ele>1097</ele>
        <time>2017-08-18T09:51:55Z</time>
      </trkpt>
      <trkpt lat="44.41282" lon="6.15708">
        <ele>1100</ele>
        <time>2017-08-18T09:52:14Z</time>
      </trkpt>
      <trkpt lat="44.41283" lon="6.15702">
        <ele>1103</ele>
        <time>2017-08-18T09:52:43Z</time>
      </trkpt>
      <trkpt lat="44.4128" lon="6.15698">
        <ele>1106</ele>
        <time>2017-08-18T09:53:05Z</time>
      </trkpt>
      <trkpt lat="44.41272" lon="6.15692">
        <ele>1109</ele>
        <time>2017-08-18T09:53:30Z</time>
      </trkpt>
      <trkpt lat="44.41279" lon="6.15685">
        <ele>1112</ele>
        <time>2017-08-18T09:53:54Z</time>
      </trkpt>
      <trkpt lat="44.41279" lon="6.15683">
        <ele>1112</ele>
        <time>2017-08-18T09:54:01Z</time>
      </trkpt>
      <trkpt lat="44.41276" lon="6.15677">
        <ele>1115</ele>
        <time>2017-08-18T09:54:23Z</time>
      </trkpt>
      <trkpt lat="44.41265" lon="6.15663">
        <ele>1118</ele>
        <time>2017-08-18T09:54:53Z</time>
      </trkpt>
      <trkpt lat="44.41268" lon="6.15661">
        <ele>1119</ele>
        <time>2017-08-18T09:54:58Z</time>
      </trkpt>
      <trkpt lat="44.41262" lon="6.15641">
        <ele>1122</ele>
        <time>2017-08-18T09:55:25Z</time>
      </trkpt>
      <trkpt lat="44.41265" lon="6.15627">
        <ele>1125</ele>
        <time>2017-08-18T09:55:51Z</time>
      </trkpt>
      <trkpt lat="44.41271" lon="6.15611">
        <ele>1127</ele>
        <time>2017-08-18T09:56:22Z</time>
      </trkpt>
      <trkpt lat="44.41275" lon="6.156">
        <ele>1130</ele>
        <time>2017-08-18T09:56:39Z</time>
      </trkpt>
      <trkpt lat="44.41285" lon="6.1559">
        <ele>1131</ele>
        <time>2017-08-18T09:56:59Z</time>
      </trkpt>
      <trkpt lat="44.41284" lon="6.15585">
        <ele>1133</ele>
        <time>2017-08-18T09:57:09Z</time>
      </trkpt>
      <trkpt lat="44.41289" lon="6.1558">
        <ele>1135</ele>
        <time>2017-08-18T09:57:27Z</time>
      </trkpt>
      <trkpt lat="44.41289" lon="6.15573">
        <ele>1136</ele>
        <time>2017-08-18T09:57:42Z</time>
      </trkpt>
      <trkpt lat="44.41299" lon="6.15573">
        <ele>1138</ele>
        <time>2017-08-18T09:57:56Z</time>
      </trkpt>
      <trkpt lat="44.41298" lon="6.15562">
        <ele>1139</ele>
        <time>2017-08-18T09:58:16Z</time>
      </trkpt>
      <trkpt lat="44.41299" lon="6.15563">
        <ele>1140</ele>
        <time>2017-08-18T09:58:25Z</time>
      </trkpt>
      <trkpt lat="44.41311" lon="6.15556">
        <ele>1143</ele>
        <time>2017-08-18T09:58:55Z</time>
      </trkpt>
      <trkpt lat="44.41314" lon="6.15557">
        <ele>1144</ele>
        <time>2017-08-18T09:59:03Z</time>
      </trkpt>
      <trkpt lat="44.41324" lon="6.15558">
        <ele>1145</ele>
        <time>2017-08-18T09:59:23Z</time>
      </trkpt>
      <trkpt lat="44.41332" lon="6.15544">
        <ele>1148</ele>
        <time>2017-08-18T09:59:48Z</time>
      </trkpt>
      <trkpt lat="44.41337" lon="6.15537">
        <ele>1150</ele>
        <time>2017-08-18T10:00:06Z</time>
      </trkpt>
      <trkpt lat="44.41341" lon="6.15523">
        <ele>1153</ele>
        <time>2017-08-18T10:00:35Z</time>
      </trkpt>
      <trkpt lat="44.41327" lon="6.15531">
        <ele>1157</ele>
        <time>2017-08-18T10:01:04Z</time>
      </trkpt>
      <trkpt lat="44.41324" lon="6.15526">
        <ele>1160</ele>
        <time>2017-08-18T10:01:25Z</time>
      </trkpt>
      <trkpt lat="44.41324" lon="6.15516">
        <ele>1163</ele>
        <time>2017-08-18T10:01:51Z</time>
      </trkpt>
      <trkpt lat="44.41317" lon="6.15516">
        <ele>1166</ele>
        <time>2017-08-18T10:02:19Z</time>
      </trkpt>
      <trkpt lat="44.41322" lon="6.15511">
        <ele>1169</ele>
        <time>2017-08-18T10:02:44Z</time>
      </trkpt>
      <trkpt lat="44.41319" lon="6.1551">
        <ele>1171</ele>
        <time>2017-08-18T10:03:11Z</time>
      </trkpt>
      <trkpt lat="44.41316" lon="6.15501">
        <ele>1173</ele>
        <time>2017-08-18T10:03:31Z</time>
      </trkpt>
      <trkpt lat="44.41319" lon="6.15496">
        <ele>1176</ele>
        <time>2017-08-18T10:03:53Z</time>
      </trkpt>
      <trkpt lat="44.41325" lon="6.15481">
        <ele>1179</ele>
        <time>2017-08-18T10:04:23Z</time>
      </trkpt>
      <trkpt lat="44.41327" lon="6.15487">
        <ele>1182</ele>
        <time>2017-08-18T10:04:48Z</time>
      </trkpt>
      <trkpt lat="44.41324" lon="6.15487">
        <ele>1183</ele>
        <time>2017-08-18T10:04:54Z</time>
      </trkpt>
      <trkpt lat="44.41319" lon="6.1547">
        <ele>1186</ele>
        <time>2017-08-18T10:05:20Z</time>
      </trkpt>
      <trkpt lat="44.4132" lon="6.15464">
        <ele>1189</ele>
        <time>2017-08-18T10:05:45Z</time>
      </trkpt>
      <trkpt lat="44.4132" lon="6.15463">
        <ele>1191</ele>
        <time>2017-08-18T10:06:07Z</time>
      </trkpt>
      <trkpt lat="44.41315" lon="6.15458">
        <ele>1194</ele>
        <time>2017-08-18T10:06:33Z</time>
      </trkpt>
      <trkpt lat="44.41317" lon="6.15442">
        <ele>1197</ele>
        <time>2017-08-18T10:07:01Z</time>
      </trkpt>
      <trkpt lat="44.41316" lon="6.15443">
        <ele>1198</ele>
        <time>2017-08-18T10:07:05Z</time>
      </trkpt>
      <trkpt lat="44.41316" lon="6.15442">
        <ele>1201</ele>
        <time>2017-08-18T10:07:30Z</time>
      </trkpt>
      <trkpt lat="44.41317" lon="6.15438">
        <ele>1202</ele>
        <time>2017-08-18T10:07:41Z</time>
      </trkpt>
      <trkpt lat="44.41312" lon="6.1544">
        <ele>1203</ele>
        <time>2017-08-18T10:07:46Z</time>
      </trkpt>
      <trkpt lat="44.41301" lon="6.15439">
        <ele>1205</ele>
        <time>2017-08-18T10:08:09Z</time>
      </trkpt>
      <trkpt lat="44.41298" lon="6.15431">
        <ele>1208</ele>
        <time>2017-08-18T10:08:34Z</time>
      </trkpt>
      <trkpt lat="44.41298" lon="6.15422">
        <ele>1211</ele>
        <time>2017-08-18T10:09:01Z</time>
      </trkpt>
      <trkpt lat="44.413" lon="6.1541">
        <ele>1214</ele>
        <time>2017-08-18T10:09:26Z</time>
      </trkpt>
      <trkpt lat="44.41301" lon="6.15401">
        <ele>1217</ele>
        <time>2017-08-18T10:09:51Z</time>
      </trkpt>
      <trkpt lat="44.41303" lon="6.154">
        <ele>1218</ele>
        <time>2017-08-18T10:09:57Z</time>
      </trkpt>
      <trkpt lat="44.41303" lon="6.15392">
        <ele>1221</ele>
        <time>2017-08-18T10:10:25Z</time>
      </trkpt>
      <trkpt lat="44.41303" lon="6.15381">
        <ele>1225</ele>
        <time>2017-08-18T10:10:50Z</time>
      </trkpt>
      <trkpt lat="44.41302" lon="6.15371">
        <ele>1228</ele>
        <time>2017-08-18T10:11:15Z</time>
      </trkpt>
      <trkpt lat="44.41306" lon="6.15358">
        <ele>1230</ele>
        <time>2017-08-18T10:11:40Z</time>
      </trkpt>
      <trkpt lat="44.41307" lon="6.15347">
        <ele>1231</ele>
        <time>2017-08-18T10:12:01Z</time>
      </trkpt>
      <trkpt lat="44.41302" lon="6.15333">
        <ele>1231</ele>
        <time>2017-08-18T10:12:24Z</time>
      </trkpt>
      <trkpt lat="44.41325" lon="6.15334">
        <ele>1231</ele>
        <time>2017-08-18T10:12:47Z</time>
      </trkpt>
      <trkpt lat="44.41341" lon="6.15341">
        <ele>1231</ele>
        <time>2017-08-18T10:13:01Z</time>
      </trkpt>
      <trkpt lat="44.41342" lon="6.15342">
        <ele>1231</ele>
        <time>2017-08-18T10:13:05Z</time>
      </trkpt>
      <trkpt lat="44.41331" lon="6.15349">
        <ele>1231</ele>
        <time>2017-08-18T10:13:19Z</time>
      </trkpt>
      <trkpt lat="44.41315" lon="6.15352">
        <ele>1231</ele>
        <time>2017-08-18T10:13:50Z</time>
      </trkpt>
      <trkpt lat="44.41307" lon="6.15349">
        <ele>1231</ele>
        <time>2017-08-18T10:14:38Z</time>
      </trkpt>
      <trkpt lat="44.41307" lon="6.15346">
        <ele>1231</ele>
        <time>2017-08-18T10:15:25Z</time>
      </trkpt>
      <trkpt lat="44.4131" lon="6.15347">
        <ele>1231</ele>
        <time>2017-08-18T10:16:08Z</time>
      </trkpt>
      <trkpt lat="44.41313" lon="6.15348">
        <ele>1231</ele>
        <time>2017-08-18T10:16:56Z</time>
      </trkpt>
      <trkpt lat="44.41313" lon="6.15334">
        <ele>1234</ele>
        <time>2017-08-18T10:17:26Z</time>
      </trkpt>
      <trkpt lat="44.41313" lon="6.15324">
        <ele>1237</ele>
        <time>2017-08-18T10:17:47Z</time>
      </trkpt>
      <trkpt lat="44.41312" lon="6.15318">
        <ele>1240</ele>
        <time>2017-08-18T10:18:10Z</time>
      </trkpt>
      <trkpt lat="44.41313" lon="6.15306">
        <ele>1243</ele>
        <time>2017-08-18T10:18:35Z</time>
      </trkpt>
      <trkpt lat="44.41314" lon="6.15292">
        <ele>1246</ele>
        <time>2017-08-18T10:19:01Z</time>
      </trkpt>
      <trkpt lat="44.41314" lon="6.15279">
        <ele>1249</ele>
        <time>2017-08-18T10:19:26Z</time>
      </trkpt>
      <trkpt lat="44.41317" lon="6.15269">
        <ele>1253</ele>
        <time>2017-08-18T10:19:52Z</time>
      </trkpt>
      <trkpt lat="44.41321" lon="6.15264">
        <ele>1256</ele>
        <time>2017-08-18T10:20:15Z</time>
      </trkpt>
      <trkpt lat="44.4132" lon="6.15262">
        <ele>1258</ele>
        <time>2017-08-18T10:20:39Z</time>
      </trkpt>
      <trkpt lat="44.41322" lon="6.15249">
        <ele>1262</ele>
        <time>2017-08-18T10:21:08Z</time>
      </trkpt>
      <trkpt lat="44.41324" lon="6.15241">
        <ele>1265</ele>
        <time>2017-08-18T10:21:38Z</time>
      </trkpt>
      <trkpt lat="44.41324" lon="6.15233">
        <ele>1267</ele>
        <time>2017-08-18T10:22:01Z</time>
      </trkpt>
      <trkpt lat="44.41322" lon="6.15216">
        <ele>1271</ele>
        <time>2017-08-18T10:22:29Z</time>
      </trkpt>
      <trkpt lat="44.41318" lon="6.15209">
        <ele>1274</ele>
        <time>2017-08-18T10:22:56Z</time>
      </trkpt>
      <trkpt lat="44.41314" lon="6.15213">
        <ele>1277</ele>
        <time>2017-08-18T10:23:20Z</time>
      </trkpt>
      <trkpt lat="44.41309" lon="6.15214">
        <ele>1279</ele>
        <time>2017-08-18T10:23:42Z</time>
      </trkpt>
      <trkpt lat="44.41305" lon="6.15207">
        <ele>1282</ele>
        <time>2017-08-18T10:24:03Z</time>
      </trkpt>
      <trkpt lat="44.41303" lon="6.15201">
        <ele>1285</ele>
        <time>2017-08-18T10:24:31Z</time>
      </trkpt>
      <trkpt lat="44.413" lon="6.15198">
        <ele>1287</ele>
        <time>2017-08-18T10:24:56Z</time>
      </trkpt>
      <trkpt lat="44.41299" lon="6.15198">
        <ele>1289</ele>
        <time>2017-08-18T10:25:26Z</time>
      </trkpt>
      <trkpt lat="44.41297" lon="6.15194">
        <ele>1291</ele>
        <time>2017-08-18T10:26:08Z</time>
      </trkpt>
      <trkpt lat="44.41291" lon="6.15194">
        <ele>1292</ele>
        <time>2017-08-18T10:26:45Z</time>
      </trkpt>
      <trkpt lat="44.41292" lon="6.15177">
        <ele>1294</ele>
        <time>2017-08-18T10:27:10Z</time>
      </trkpt>
      <trkpt lat="44.41291" lon="6.15166">
        <ele>1297</ele>
        <time>2017-08-18T10:27:35Z</time>
      </trkpt>
      <trkpt lat="44.41287" lon="6.15154">
        <ele>1300</ele>
        <time>2017-08-18T10:27:59Z</time>
      </trkpt>
      <trkpt lat="44.41287" lon="6.15149">
        <ele>1303</ele>
        <time>2017-08-18T10:28:19Z</time>
      </trkpt>
      <trkpt lat="44.41287" lon="6.15147">
        <ele>1303</ele>
        <time>2017-08-18T10:28:22Z</time>
      </trkpt>
      <trkpt lat="44.41286" lon="6.15132">
        <ele>1306</ele>
        <time>2017-08-18T10:28:45Z</time>
      </trkpt>
      <trkpt lat="44.41283" lon="6.15119">
        <ele>1309</ele>
        <time>2017-08-18T10:29:08Z</time>
      </trkpt>
      <trkpt lat="44.4128" lon="6.15108">
        <ele>1313</ele>
        <time>2017-08-18T10:29:32Z</time>
      </trkpt>
      <trkpt lat="44.41283" lon="6.15091">
        <ele>1316</ele>
        <time>2017-08-18T10:30:00Z</time>
      </trkpt>
      <trkpt lat="44.41283" lon="6.15089">
        <ele>1317</ele>
        <time>2017-08-18T10:30:05Z</time>
      </trkpt>
      <trkpt lat="44.41284" lon="6.15079">
        <ele>1320</ele>
        <time>2017-08-18T10:30:29Z</time>
      </trkpt>
      <trkpt lat="44.41287" lon="6.15064">
        <ele>1322</ele>
        <time>2017-08-18T10:31:04Z</time>
      </trkpt>
      <trkpt lat="44.41287" lon="6.15058">
        <ele>1326</ele>
        <time>2017-08-18T10:31:35Z</time>
      </trkpt>
      <trkpt lat="44.41287" lon="6.1504">
        <ele>1329</ele>
        <time>2017-08-18T10:31:55Z</time>
      </trkpt>
      <trkpt lat="44.41289" lon="6.15024">
        <ele>1332</ele>
        <time>2017-08-18T10:32:21Z</time>
      </trkpt>
      <trkpt lat="44.4129" lon="6.15013">
        <ele>1334</ele>
        <time>2017-08-18T10:32:42Z</time>
      </trkpt>
      <trkpt lat="44.41293" lon="6.15007">
        <ele>1338</ele>
        <time>2017-08-18T10:33:17Z</time>
      </trkpt>
      <trkpt lat="44.41294" lon="6.14996">
        <ele>1340</ele>
        <time>2017-08-18T10:33:43Z</time>
      </trkpt>
      <trkpt lat="44.41292" lon="6.14986">
        <ele>1342</ele>
        <time>2017-08-18T10:34:09Z</time>
      </trkpt>
      <trkpt lat="44.41295" lon="6.14969">
        <ele>1346</ele>
        <time>2017-08-18T10:34:34Z</time>
      </trkpt>
      <trkpt lat="44.41302" lon="6.14959">
        <ele>1349</ele>
        <time>2017-08-18T10:34:58Z</time>
      </trkpt>
      <trkpt lat="44.41301" lon="6.14957">
        <ele>1349</ele>
        <time>2017-08-18T10:35:02Z</time>
      </trkpt>
      <trkpt lat="44.4131" lon="6.14943">
        <ele>1352</ele>
        <time>2017-08-18T10:35:33Z</time>
      </trkpt>
      <trkpt lat="44.41311" lon="6.14933">
        <ele>1355</ele>
        <time>2017-08-18T10:35:56Z</time>
      </trkpt>
      <trkpt lat="44.41307" lon="6.14925">
        <ele>1358</ele>
        <time>2017-08-18T10:36:19Z</time>
      </trkpt>
      <trkpt lat="44.41303" lon="6.14911">
        <ele>1361</ele>
        <time>2017-08-18T10:36:48Z</time>
      </trkpt>
      <trkpt lat="44.41303" lon="6.1491">
        <ele>1362</ele>
        <time>2017-08-18T10:36:49Z</time>
      </trkpt>
      <trkpt lat="44.41304" lon="6.14897">
        <ele>1365</ele>
        <time>2017-08-18T10:37:19Z</time>
      </trkpt>
      <trkpt lat="44.41301" lon="6.14887">
        <ele>1368</ele>
        <time>2017-08-18T10:37:40Z</time>
      </trkpt>
      <trkpt lat="44.41304" lon="6.1487">
        <ele>1370</ele>
        <time>2017-08-18T10:38:08Z</time>
      </trkpt>
      <trkpt lat="44.41315" lon="6.14868">
        <ele>1372</ele>
        <time>2017-08-18T10:38:31Z</time>
      </trkpt>
      <trkpt lat="44.41315" lon="6.14869">
        <ele>1372</ele>
        <time>2017-08-18T10:38:48Z</time>
      </trkpt>
      <trkpt lat="44.41317" lon="6.14873">
        <ele>1372</ele>
        <time>2017-08-18T10:39:29Z</time>
      </trkpt>
      <trkpt lat="44.4132" lon="6.14875">
        <ele>1372</ele>
        <time>2017-08-18T10:40:10Z</time>
      </trkpt>
      <trkpt lat="44.41323" lon="6.14876">
        <ele>1372</ele>
        <time>2017-08-18T10:41:08Z</time>
      </trkpt>
      <trkpt lat="44.41322" lon="6.14876">
        <ele>1371</ele>
        <time>2017-08-18T10:41:47Z</time>
      </trkpt>
      <trkpt lat="44.41322" lon="6.14876">
        <ele>1371</ele>
        <time>2017-08-18T10:42:48Z</time>
      </trkpt>
      <trkpt lat="44.41317" lon="6.14876">
        <ele>1372</ele>
        <time>2017-08-18T10:43:14Z</time>
      </trkpt>
      <trkpt lat="44.41308" lon="6.14874">
        <ele>1371</ele>
        <time>2017-08-18T10:43:36Z</time>
      </trkpt>
      <trkpt lat="44.41301" lon="6.14872">
        <ele>1370</ele>
        <time>2017-08-18T10:44:08Z</time>
      </trkpt>
      <trkpt lat="44.4129" lon="6.14877">
        <ele>1373</ele>
        <time>2017-08-18T10:44:35Z</time>
      </trkpt>
      <trkpt lat="44.41288" lon="6.14879">
        <ele>1377</ele>
        <time>2017-08-18T10:44:58Z</time>
      </trkpt>
      <trkpt lat="44.41275" lon="6.14868">
        <ele>1380</ele>
        <time>2017-08-18T10:45:34Z</time>
      </trkpt>
      <trkpt lat="44.41265" lon="6.14857">
        <ele>1383</ele>
        <time>2017-08-18T10:46:03Z</time>
      </trkpt>
      <trkpt lat="44.41248" lon="6.14862">
        <ele>1386</ele>
        <time>2017-08-18T10:46:29Z</time>
      </trkpt>
      <trkpt lat="44.41244" lon="6.1488">
        <ele>1389</ele>
        <time>2017-08-18T10:46:57Z</time>
      </trkpt>
      <trkpt lat="44.41249" lon="6.14895">
        <ele>1392</ele>
        <time>2017-08-18T10:47:22Z</time>
      </trkpt>
      <trkpt lat="44.41255" lon="6.14897">
        <ele>1395</ele>
        <time>2017-08-18T10:47:44Z</time>
      </trkpt>
      <trkpt lat="44.41248" lon="6.14882">
        <ele>1397</ele>
        <time>2017-08-18T10:48:11Z</time>
      </trkpt>
      <trkpt lat="44.4124" lon="6.14866">
        <ele>1400</ele>
        <time>2017-08-18T10:48:38Z</time>
      </trkpt>
      <trkpt lat="44.41231" lon="6.14848">
        <ele>1403</ele>
        <time>2017-08-18T10:49:07Z</time>
      </trkpt>
      <trkpt lat="44.41221" lon="6.14842">
        <ele>1404</ele>
        <time>2017-08-18T10:49:31Z</time>
      </trkpt>
      <trkpt lat="44.41217" lon="6.14839">
        <ele>1404</ele>
        <time>2017-08-18T10:50:05Z</time>
      </trkpt>
      <trkpt lat="44.41215" lon="6.14835">
        <ele>1404</ele>
        <time>2017-08-18T10:50:47Z</time>
      </trkpt>
      <trkpt lat="44.41204" lon="6.14828">
        <ele>1403</ele>
        <time>2017-08-18T10:51:24Z</time>
      </trkpt>
      <trkpt lat="44.41198" lon="6.14826">
        <ele>1406</ele>
        <time>2017-08-18T10:51:50Z</time>
      </trkpt>
      <trkpt lat="44.41187" lon="6.14821">
        <ele>1408</ele>
        <time>2017-08-18T10:52:14Z</time>
      </trkpt>
      <trkpt lat="44.41179" lon="6.14811">
        <ele>1411</ele>
        <time>2017-08-18T10:52:34Z</time>
      </trkpt>
      <trkpt lat="44.41174" lon="6.1479">
        <ele>1412</ele>
        <time>2017-08-18T10:52:59Z</time>
      </trkpt>
      <trkpt lat="44.41166" lon="6.14777">
        <ele>1413</ele>
        <time>2017-08-18T10:53:18Z</time>
      </trkpt>
      <trkpt lat="44.41154" lon="6.14769">
        <ele>1416</ele>
        <time>2017-08-18T10:53:46Z</time>
      </trkpt>
      <trkpt lat="44.41157" lon="6.14751">
        <ele>1418</ele>
        <time>2017-08-18T10:54:06Z</time>
      </trkpt>
      <trkpt lat="44.41161" lon="6.14737">
        <ele>1420</ele>
        <time>2017-08-18T10:54:25Z</time>
      </trkpt>
      <trkpt lat="44.41158" lon="6.14722">
        <ele>1422</ele>
        <time>2017-08-18T10:55:06Z</time>
      </trkpt>
      <trkpt lat="44.41156" lon="6.14723">
        <ele>1422</ele>
        <time>2017-08-18T10:55:10Z</time>
      </trkpt>
      <trkpt lat="44.41138" lon="6.14722">
        <ele>1425</ele>
        <time>2017-08-18T10:55:35Z</time>
      </trkpt>
      <trkpt lat="44.41134" lon="6.14729">
        <ele>1426</ele>
        <time>2017-08-18T10:55:49Z</time>
      </trkpt>
      <trkpt lat="44.41134" lon="6.14729">
        <ele>1426</ele>
        <time>2017-08-18T10:55:50Z</time>
      </trkpt>
      <trkpt lat="44.41121" lon="6.14747">
        <ele>1429</ele>
        <time>2017-08-18T10:56:15Z</time>
      </trkpt>
      <trkpt lat="44.41109" lon="6.14761">
        <ele>1431</ele>
        <time>2017-08-18T10:56:37Z</time>
      </trkpt>
      <trkpt lat="44.41105" lon="6.14775">
        <ele>1433</ele>
        <time>2017-08-18T10:56:55Z</time>
      </trkpt>
      <trkpt lat="44.41107" lon="6.1479">
        <ele>1436</ele>
        <time>2017-08-18T10:57:20Z</time>
      </trkpt>
      <trkpt lat="44.41114" lon="6.1481">
        <ele>1437</ele>
        <time>2017-08-18T10:57:53Z</time>
      </trkpt>
      <trkpt lat="44.41123" lon="6.14819">
        <ele>1438</ele>
        <time>2017-08-18T10:58:21Z</time>
      </trkpt>
      <trkpt lat="44.41125" lon="6.14826">
        <ele>1441</ele>
        <time>2017-08-18T10:58:49Z</time>
      </trkpt>
      <trkpt lat="44.41127" lon="6.14839">
        <ele>1444</ele>
        <time>2017-08-18T10:59:15Z</time>
      </trkpt>
      <trkpt lat="44.41126" lon="6.14843">
        <ele>1447</ele>
        <time>2017-08-18T10:59:49Z</time>
      </trkpt>
      <trkpt lat="44.41124" lon="6.14851">
        <ele>1449</ele>
        <time>2017-08-18T11:00:21Z</time>
      </trkpt>
      <trkpt lat="44.41123" lon="6.14855">
        <ele>1452</ele>
        <time>2017-08-18T11:00:53Z</time>
      </trkpt>
      <trkpt lat="44.41128" lon="6.14865">
        <ele>1454</ele>
        <time>2017-08-18T11:01:23Z</time>
      </trkpt>
      <trkpt lat="44.41127" lon="6.14869">
        <ele>1455</ele>
        <time>2017-08-18T11:01:57Z</time>
      </trkpt>
      <trkpt lat="44.41128" lon="6.1487">
        <ele>1455</ele>
        <time>2017-08-18T11:02:03Z</time>
      </trkpt>
      <trkpt lat="44.41131" lon="6.14868">
        <ele>1457</ele>
        <time>2017-08-18T11:02:41Z</time>
      </trkpt>
      <trkpt lat="44.41133" lon="6.1487">
        <ele>1459</ele>
        <time>2017-08-18T11:03:06Z</time>
      </trkpt>
      <trkpt lat="44.41135" lon="6.14873">
        <ele>1460</ele>
        <time>2017-08-18T11:03:53Z</time>
      </trkpt>
      <trkpt lat="44.41134" lon="6.14874">
        <ele>1460</ele>
        <time>2017-08-18T11:04:27Z</time>
      </trkpt>
      <trkpt lat="44.41136" lon="6.14873">
        <ele>1460</ele>
        <time>2017-08-18T11:05:06Z</time>
      </trkpt>
      <trkpt lat="44.41134" lon="6.14872">
        <ele>1460</ele>
        <time>2017-08-18T11:05:49Z</time>
      </trkpt>
      <trkpt lat="44.41135" lon="6.14871">
        <ele>1460</ele>
        <time>2017-08-18T11:06:12Z</time>
      </trkpt>
      <trkpt lat="44.41134" lon="6.14871">
        <ele>1459</ele>
        <time>2017-08-18T11:06:44Z</time>
      </trkpt>
      <trkpt lat="44.41132" lon="6.14869">
        <ele>1458</ele>
        <time>2017-08-18T11:07:11Z</time>
      </trkpt>
      <trkpt lat="44.41128" lon="6.14869">
        <ele>1457</ele>
        <time>2017-08-18T11:07:41Z</time>
      </trkpt>
      <trkpt lat="44.41128" lon="6.14867">
        <ele>1457</ele>
        <time>2017-08-18T11:08:12Z</time>
      </trkpt>
      <trkpt lat="44.41128" lon="6.14864">
        <ele>1456</ele>
        <time>2017-08-18T11:08:44Z</time>
      </trkpt>
      <trkpt lat="44.41127" lon="6.14866">
        <ele>1455</ele>
        <time>2017-08-18T11:09:16Z</time>
      </trkpt>
      <trkpt lat="44.41125" lon="6.14864">
        <ele>1454</ele>
        <time>2017-08-18T11:09:49Z</time>
      </trkpt>
      <trkpt lat="44.41125" lon="6.14859">
        <ele>1452</ele>
        <time>2017-08-18T11:10:07Z</time>
      </trkpt>
      <trkpt lat="44.41129" lon="6.14854">
        <ele>1450</ele>
        <time>2017-08-18T11:10:40Z</time>
      </trkpt>
      <trkpt lat="44.41129" lon="6.14848">
        <ele>1448</ele>
        <time>2017-08-18T11:11:14Z</time>
      </trkpt>
      <trkpt lat="44.41125" lon="6.14843">
        <ele>1446</ele>
        <time>2017-08-18T11:11:38Z</time>
      </trkpt>
      <trkpt lat="44.4113" lon="6.14838">
        <ele>1443</ele>
        <time>2017-08-18T11:12:08Z</time>
      </trkpt>
      <trkpt lat="44.41127" lon="6.14832">
        <ele>1440</ele>
        <time>2017-08-18T11:12:26Z</time>
      </trkpt>
      <trkpt lat="44.41124" lon="6.14818">
        <ele>1438</ele>
        <time>2017-08-18T11:12:46Z</time>
      </trkpt>
      <trkpt lat="44.41112" lon="6.14806">
        <ele>1437</ele>
        <time>2017-08-18T11:13:09Z</time>
      </trkpt>
      <trkpt lat="44.41111" lon="6.14797">
        <ele>1436</ele>
        <time>2017-08-18T11:13:37Z</time>
      </trkpt>
      <trkpt lat="44.41113" lon="6.14786">
        <ele>1433</ele>
        <time>2017-08-18T11:14:01Z</time>
      </trkpt>
      <trkpt lat="44.41118" lon="6.14769">
        <ele>1430</ele>
        <time>2017-08-18T11:14:24Z</time>
      </trkpt>
      <trkpt lat="44.41129" lon="6.14751">
        <ele>1427</ele>
        <time>2017-08-18T11:14:45Z</time>
      </trkpt>
      <trkpt lat="44.41142" lon="6.14737">
        <ele>1425</ele>
        <time>2017-08-18T11:15:05Z</time>
      </trkpt>
      <trkpt lat="44.41162" lon="6.14723">
        <ele>1422</ele>
        <time>2017-08-18T11:15:34Z</time>
      </trkpt>
      <trkpt lat="44.41167" lon="6.14706">
        <ele>1423</ele>
        <time>2017-08-18T11:15:55Z</time>
      </trkpt>
      <trkpt lat="44.41175" lon="6.1468">
        <ele>1425</ele>
        <time>2017-08-18T11:16:21Z</time>
      </trkpt>
      <trkpt lat="44.41189" lon="6.14659">
        <ele>1427</ele>
        <time>2017-08-18T11:16:46Z</time>
      </trkpt>
      <trkpt lat="44.41201" lon="6.14633">
        <ele>1427</ele>
        <time>2017-08-18T11:17:13Z</time>
      </trkpt>
      <trkpt lat="44.41208" lon="6.14618">
        <ele>1428</ele>
        <time>2017-08-18T11:17:36Z</time>
      </trkpt>
      <trkpt lat="44.41216" lon="6.14595">
        <ele>1429</ele>
        <time>2017-08-18T11:18:04Z</time>
      </trkpt>
      <trkpt lat="44.41214" lon="6.14577">
        <ele>1430</ele>
        <time>2017-08-18T11:18:24Z</time>
      </trkpt>
      <trkpt lat="44.41204" lon="6.14555">
        <ele>1431</ele>
        <time>2017-08-18T11:18:47Z</time>
      </trkpt>
      <trkpt lat="44.41194" lon="6.14535">
        <ele>1431</ele>
        <time>2017-08-18T11:19:09Z</time>
      </trkpt>
      <trkpt lat="44.41186" lon="6.14513">
        <ele>1434</ele>
        <time>2017-08-18T11:19:33Z</time>
      </trkpt>
      <trkpt lat="44.41184" lon="6.14512">
        <ele>1434</ele>
        <time>2017-08-18T11:19:37Z</time>
      </trkpt>
      <trkpt lat="44.4118" lon="6.14508">
        <ele>1435</ele>
        <time>2017-08-18T11:19:44Z</time>
      </trkpt>
      <trkpt lat="44.41176" lon="6.14508">
        <ele>1438</ele>
        <time>2017-08-18T11:20:07Z</time>
      </trkpt>
      <trkpt lat="44.4117" lon="6.14503">
        <ele>1441</ele>
        <time>2017-08-18T11:20:30Z</time>
      </trkpt>
      <trkpt lat="44.41167" lon="6.14498">
        <ele>1442</ele>
        <time>2017-08-18T11:20:40Z</time>
      </trkpt>
      <trkpt lat="44.41161" lon="6.14491">
        <ele>1445</ele>
        <time>2017-08-18T11:21:06Z</time>
      </trkpt>
      <trkpt lat="44.41163" lon="6.14486">
        <ele>1446</ele>
        <time>2017-08-18T11:21:37Z</time>
      </trkpt>
      <trkpt lat="44.41173" lon="6.1448">
        <ele>1446</ele>
        <time>2017-08-18T11:22:09Z</time>
      </trkpt>
      <trkpt lat="44.41181" lon="6.14469">
        <ele>1446</ele>
        <time>2017-08-18T11:22:53Z</time>
      </trkpt>
      <trkpt lat="44.41184" lon="6.14459">
        <ele>1448</ele>
        <time>2017-08-18T11:23:16Z</time>
      </trkpt>
      <trkpt lat="44.41189" lon="6.14441">
        <ele>1449</ele>
        <time>2017-08-18T11:23:40Z</time>
      </trkpt>
      <trkpt lat="44.41193" lon="6.14424">
        <ele>1451</ele>
        <time>2017-08-18T11:24:04Z</time>
      </trkpt>
      <trkpt lat="44.41197" lon="6.14407">
        <ele>1453</ele>
        <time>2017-08-18T11:24:25Z</time>
      </trkpt>
      <trkpt lat="44.41204" lon="6.14404">
        <ele>1455</ele>
        <time>2017-08-18T11:24:56Z</time>
      </trkpt>
      <trkpt lat="44.41207" lon="6.14399">
        <ele>1456</ele>
        <time>2017-08-18T11:25:29Z</time>
      </trkpt>
      <trkpt lat="44.41211" lon="6.14389">
        <ele>1459</ele>
        <time>2017-08-18T11:25:51Z</time>
      </trkpt>
      <trkpt lat="44.41209" lon="6.14381">
        <ele>1459</ele>
        <time>2017-08-18T11:26:19Z</time>
      </trkpt>
      <trkpt lat="44.41206" lon="6.14377">
        <ele>1458</ele>
        <time>2017-08-18T11:26:53Z</time>
      </trkpt>
      <trkpt lat="44.41206" lon="6.14371">
        <ele>1457</ele>
        <time>2017-08-18T11:27:13Z</time>
      </trkpt>
      <trkpt lat="44.41205" lon="6.1436">
        <ele>1458</ele>
        <time>2017-08-18T11:27:33Z</time>
      </trkpt>
      <trkpt lat="44.41204" lon="6.14346">
        <ele>1459</ele>
        <time>2017-08-18T11:27:55Z</time>
      </trkpt>
      <trkpt lat="44.41203" lon="6.14331">
        <ele>1461</ele>
        <time>2017-08-18T11:28:25Z</time>
      </trkpt>
      <trkpt lat="44.412" lon="6.14328">
        <ele>1462</ele>
        <time>2017-08-18T11:28:35Z</time>
      </trkpt>
      <trkpt lat="44.41193" lon="6.14316">
        <ele>1463</ele>
        <time>2017-08-18T11:29:01Z</time>
      </trkpt>
      <trkpt lat="44.41176" lon="6.14305">
        <ele>1464</ele>
        <time>2017-08-18T11:29:24Z</time>
      </trkpt>
      <trkpt lat="44.41168" lon="6.14285">
        <ele>1467</ele>
        <time>2017-08-18T11:29:50Z</time>
      </trkpt>
      <trkpt lat="44.41153" lon="6.14271">
        <ele>1468</ele>
        <time>2017-08-18T11:30:13Z</time>
      </trkpt>
      <trkpt lat="44.41143" lon="6.14262">
        <ele>1469</ele>
        <time>2017-08-18T11:30:40Z</time>
      </trkpt>
      <trkpt lat="44.41133" lon="6.14248">
        <ele>1467</ele>
        <time>2017-08-18T11:31:04Z</time>
      </trkpt>
      <trkpt lat="44.41128" lon="6.14241">
        <ele>1464</ele>
        <time>2017-08-18T11:31:27Z</time>
      </trkpt>
      <trkpt lat="44.41128" lon="6.14239">
        <ele>1463</ele>
        <time>2017-08-18T11:31:30Z</time>
      </trkpt>
      <trkpt lat="44.41118" lon="6.14212">
        <ele>1462</ele>
        <time>2017-08-18T11:31:54Z</time>
      </trkpt>
      <trkpt lat="44.41107" lon="6.14192">
        <ele>1462</ele>
        <time>2017-08-18T11:32:18Z</time>
      </trkpt>
      <trkpt lat="44.4111" lon="6.14178">
        <ele>1460</ele>
        <time>2017-08-18T11:32:48Z</time>
      </trkpt>
      <trkpt lat="44.41105" lon="6.1417">
        <ele>1457</ele>
        <time>2017-08-18T11:33:13Z</time>
      </trkpt>
      <trkpt lat="44.41096" lon="6.1417">
        <ele>1455</ele>
        <time>2017-08-18T11:33:22Z</time>
      </trkpt>
      <trkpt lat="44.41082" lon="6.14163">
        <ele>1454</ele>
        <time>2017-08-18T11:33:45Z</time>
      </trkpt>
      <trkpt lat="44.41082" lon="6.14162">
        <ele>1454</ele>
        <time>2017-08-18T11:33:46Z</time>
      </trkpt>
      <trkpt lat="44.41072" lon="6.14128">
        <ele>1454</ele>
        <time>2017-08-18T11:34:10Z</time>
      </trkpt>
      <trkpt lat="44.4107" lon="6.14117">
        <ele>1454</ele>
        <time>2017-08-18T11:34:19Z</time>
      </trkpt>
      <trkpt lat="44.41064" lon="6.14105">
        <ele>1454</ele>
        <time>2017-08-18T11:34:29Z</time>
      </trkpt>
      <trkpt lat="44.41062" lon="6.14098">
        <ele>1454</ele>
        <time>2017-08-18T11:34:34Z</time>
      </trkpt>
      <trkpt lat="44.4106" lon="6.14076">
        <ele>1454</ele>
        <time>2017-08-18T11:34:49Z</time>
      </trkpt>
      <trkpt lat="44.41058" lon="6.14068">
        <ele>1454</ele>
        <time>2017-08-18T11:34:54Z</time>
      </trkpt>
      <trkpt lat="44.41069" lon="6.1405">
        <ele>1454</ele>
        <time>2017-08-18T11:35:08Z</time>
      </trkpt>
      <trkpt lat="44.41071" lon="6.14046">
        <ele>1454</ele>
        <time>2017-08-18T11:35:13Z</time>
      </trkpt>
      <trkpt lat="44.41079" lon="6.14027">
        <ele>1454</ele>
        <time>2017-08-18T11:35:31Z</time>
      </trkpt>
      <trkpt lat="44.41091" lon="6.1398">
        <ele>1454</ele>
        <time>2017-08-18T11:35:56Z</time>
      </trkpt>
      <trkpt lat="44.41091" lon="6.13949">
        <ele>1454</ele>
        <time>2017-08-18T11:36:19Z</time>
      </trkpt>
      <trkpt lat="44.41097" lon="6.13913">
        <ele>1454</ele>
        <time>2017-08-18T11:36:43Z</time>
      </trkpt>
      <trkpt lat="44.41101" lon="6.13905">
        <ele>1454</ele>
        <time>2017-08-18T11:36:48Z</time>
      </trkpt>
      <trkpt lat="44.41118" lon="6.13874">
        <ele>1454</ele>
        <time>2017-08-18T11:37:11Z</time>
      </trkpt>
      <trkpt lat="44.41129" lon="6.13861">
        <ele>1455</ele>
        <time>2017-08-18T11:37:35Z</time>
      </trkpt>
      <trkpt lat="44.41127" lon="6.1386">
        <ele>1454</ele>
        <time>2017-08-18T11:38:05Z</time>
      </trkpt>
      <trkpt lat="44.41127" lon="6.1386">
        <ele>1455</ele>
        <time>2017-08-18T11:38:41Z</time>
      </trkpt>
      <trkpt lat="44.41127" lon="6.13858">
        <ele>1454</ele>
        <time>2017-08-18T11:39:19Z</time>
      </trkpt>
      <trkpt lat="44.41132" lon="6.1386">
        <ele>1455</ele>
        <time>2017-08-18T11:39:35Z</time>
      </trkpt>
      <trkpt lat="44.41137" lon="6.13857">
        <ele>1452</ele>
        <time>2017-08-18T11:39:56Z</time>
      </trkpt>
      <trkpt lat="44.41141" lon="6.13863">
        <ele>1449</ele>
        <time>2017-08-18T11:40:18Z</time>
      </trkpt>
      <trkpt lat="44.41153" lon="6.13864">
        <ele>1446</ele>
        <time>2017-08-18T11:40:37Z</time>
      </trkpt>
      <trkpt lat="44.4116" lon="6.1385">
        <ele>1443</ele>
        <time>2017-08-18T11:41:00Z</time>
      </trkpt>
      <trkpt lat="44.41156" lon="6.1383">
        <ele>1441</ele>
        <time>2017-08-18T11:41:27Z</time>
      </trkpt>
      <trkpt lat="44.41152" lon="6.13826">
        <ele>1441</ele>
        <time>2017-08-18T11:41:34Z</time>
      </trkpt>
      <trkpt lat="44.41152" lon="6.13826">
        <ele>1438</ele>
        <time>2017-08-18T11:42:02Z</time>
      </trkpt>
      <trkpt lat="44.4116" lon="6.13833">
        <ele>1435</ele>
        <time>2017-08-18T11:42:28Z</time>
      </trkpt>
      <trkpt lat="44.41171" lon="6.13835">
        <ele>1432</ele>
        <time>2017-08-18T11:42:56Z</time>
      </trkpt>
      <trkpt lat="44.41177" lon="6.13823">
        <ele>1430</ele>
        <time>2017-08-18T11:43:20Z</time>
      </trkpt>
      <trkpt lat="44.41173" lon="6.13811">
        <ele>1427</ele>
        <time>2017-08-18T11:43:41Z</time>
      </trkpt>
      <trkpt lat="44.4117" lon="6.13796">
        <ele>1424</ele>
        <time>2017-08-18T11:44:11Z</time>
      </trkpt>
      <trkpt lat="44.41163" lon="6.1379">
        <ele>1421</ele>
        <time>2017-08-18T11:44:41Z</time>
      </trkpt>
      <trkpt lat="44.41168" lon="6.13791">
        <ele>1419</ele>
        <time>2017-08-18T11:45:05Z</time>
      </trkpt>
      <trkpt lat="44.41174" lon="6.13797">
        <ele>1416</ele>
        <time>2017-08-18T11:45:25Z</time>
      </trkpt>
      <trkpt lat="44.41182" lon="6.13801">
        <ele>1414</ele>
        <time>2017-08-18T11:45:56Z</time>
      </trkpt>
      <trkpt lat="44.4119" lon="6.13803">
        <ele>1413</ele>
        <time>2017-08-18T11:46:21Z</time>
      </trkpt>
      <trkpt lat="44.41198" lon="6.13798">
        <ele>1410</ele>
        <time>2017-08-18T11:46:46Z</time>
      </trkpt>
      <trkpt lat="44.41205" lon="6.13796">
        <ele>1407</ele>
        <time>2017-08-18T11:47:11Z</time>
      </trkpt>
      <trkpt lat="44.4121" lon="6.13788">
        <ele>1404</ele>
        <time>2017-08-18T11:47:45Z</time>
      </trkpt>
      <trkpt lat="44.41213" lon="6.13784">
        <ele>1401</ele>
        <time>2017-08-18T11:48:20Z</time>
      </trkpt>
      <trkpt lat="44.41217" lon="6.13782">
        <ele>1398</ele>
        <time>2017-08-18T11:48:48Z</time>
      </trkpt>
      <trkpt lat="44.41223" lon="6.13778">
        <ele>1395</ele>
        <time>2017-08-18T11:49:27Z</time>
      </trkpt>
      <trkpt lat="44.41226" lon="6.13775">
        <ele>1395</ele>
        <time>2017-08-18T11:49:48Z</time>
      </trkpt>
      <trkpt lat="44.4123" lon="6.13765">
        <ele>1393</ele>
        <time>2017-08-18T11:50:17Z</time>
      </trkpt>
      <trkpt lat="44.41222" lon="6.1375">
        <ele>1390</ele>
        <time>2017-08-18T11:50:44Z</time>
      </trkpt>
      <trkpt lat="44.4121" lon="6.13742">
        <ele>1387</ele>
        <time>2017-08-18T11:51:08Z</time>
      </trkpt>
      <trkpt lat="44.41209" lon="6.13735">
        <ele>1386</ele>
        <time>2017-08-18T11:51:19Z</time>
      </trkpt>
      <trkpt lat="44.41196" lon="6.13719">
        <ele>1385</ele>
        <time>2017-08-18T11:51:38Z</time>
      </trkpt>
      <trkpt lat="44.41189" lon="6.13712">
        <ele>1384</ele>
        <time>2017-08-18T11:51:52Z</time>
      </trkpt>
      <trkpt lat="44.41181" lon="6.1371">
        <ele>1381</ele>
        <time>2017-08-18T11:52:24Z</time>
      </trkpt>
      <trkpt lat="44.41177" lon="6.13709">
        <ele>1379</ele>
        <time>2017-08-18T11:52:45Z</time>
      </trkpt>
      <trkpt lat="44.41174" lon="6.13691">
        <ele>1377</ele>
        <time>2017-08-18T11:53:09Z</time>
      </trkpt>
      <trkpt lat="44.41168" lon="6.13675">
        <ele>1374</ele>
        <time>2017-08-18T11:53:36Z</time>
      </trkpt>
      <trkpt lat="44.4117" lon="6.13664">
        <ele>1371</ele>
        <time>2017-08-18T11:53:55Z</time>
      </trkpt>
      <trkpt lat="44.41173" lon="6.13644">
        <ele>1368</ele>
        <time>2017-08-18T11:54:18Z</time>
      </trkpt>
      <trkpt lat="44.41178" lon="6.13624">
        <ele>1365</ele>
        <time>2017-08-18T11:54:42Z</time>
      </trkpt>
      <trkpt lat="44.41182" lon="6.13606">
        <ele>1362</ele>
        <time>2017-08-18T11:55:05Z</time>
      </trkpt>
      <trkpt lat="44.41167" lon="6.13579">
        <ele>1362</ele>
        <time>2017-08-18T11:55:31Z</time>
      </trkpt>
      <trkpt lat="44.41167" lon="6.13578">
        <ele>1362</ele>
        <time>2017-08-18T11:55:33Z</time>
      </trkpt>
      <trkpt lat="44.41147" lon="6.13573">
        <ele>1361</ele>
        <time>2017-08-18T11:56:01Z</time>
      </trkpt>
      <trkpt lat="44.41136" lon="6.13566">
        <ele>1359</ele>
        <time>2017-08-18T11:56:29Z</time>
      </trkpt>
      <trkpt lat="44.4113" lon="6.13567">
        <ele>1356</ele>
        <time>2017-08-18T11:56:56Z</time>
      </trkpt>
      <trkpt lat="44.41134" lon="6.13572">
        <ele>1355</ele>
        <time>2017-08-18T11:57:36Z</time>
      </trkpt>
      <trkpt lat="44.41131" lon="6.13572">
        <ele>1355</ele>
        <time>2017-08-18T11:58:01Z</time>
      </trkpt>
      <trkpt lat="44.41129" lon="6.13559">
        <ele>1355</ele>
        <time>2017-08-18T11:58:28Z</time>
      </trkpt>
      <trkpt lat="44.41119" lon="6.1355">
        <ele>1353</ele>
        <time>2017-08-18T11:58:46Z</time>
      </trkpt>
      <trkpt lat="44.41109" lon="6.13535">
        <ele>1350</ele>
        <time>2017-08-18T11:59:10Z</time>
      </trkpt>
      <trkpt lat="44.41106" lon="6.13535">
        <ele>1350</ele>
        <time>2017-08-18T11:59:17Z</time>
      </trkpt>
      <trkpt lat="44.41103" lon="6.13525">
        <ele>1347</ele>
        <time>2017-08-18T11:59:39Z</time>
      </trkpt>
      <trkpt lat="44.411" lon="6.13519">
        <ele>1346</ele>
        <time>2017-08-18T11:59:54Z</time>
      </trkpt>
      <trkpt lat="44.41089" lon="6.1352">
        <ele>1343</ele>
        <time>2017-08-18T12:00:22Z</time>
      </trkpt>
      <trkpt lat="44.41081" lon="6.13522">
        <ele>1340</ele>
        <time>2017-08-18T12:00:39Z</time>
      </trkpt>
      <trkpt lat="44.41079" lon="6.13523">
        <ele>1338</ele>
        <time>2017-08-18T12:00:57Z</time>
      </trkpt>
      <trkpt lat="44.41076" lon="6.13516">
        <ele>1335</ele>
        <time>2017-08-18T12:01:19Z</time>
      </trkpt>
      <trkpt lat="44.41072" lon="6.13509">
        <ele>1334</ele>
        <time>2017-08-18T12:01:40Z</time>
      </trkpt>
      <trkpt lat="44.41067" lon="6.13512">
        <ele>1334</ele>
        <time>2017-08-18T12:01:58Z</time>
      </trkpt>
      <trkpt lat="44.41069" lon="6.13519">
        <ele>1334</ele>
        <time>2017-08-18T12:02:10Z</time>
      </trkpt>
      <trkpt lat="44.41072" lon="6.13515">
        <ele>1334</ele>
        <time>2017-08-18T12:02:32Z</time>
      </trkpt>
      <trkpt lat="44.41067" lon="6.13519">
        <ele>1334</ele>
        <time>2017-08-18T12:03:07Z</time>
      </trkpt>
      <trkpt lat="44.41071" lon="6.13512">
        <ele>1334</ele>
        <time>2017-08-18T12:03:24Z</time>
      </trkpt>
      <trkpt lat="44.41066" lon="6.13516">
        <ele>1334</ele>
        <time>2017-08-18T12:03:42Z</time>
      </trkpt>
      <trkpt lat="44.41072" lon="6.1352">
        <ele>1334</ele>
        <time>2017-08-18T12:03:57Z</time>
      </trkpt>
      <trkpt lat="44.41074" lon="6.13521">
        <ele>1334</ele>
        <time>2017-08-18T12:04:10Z</time>
      </trkpt>
      <trkpt lat="44.41083" lon="6.13533">
        <ele>1334</ele>
        <time>2017-08-18T12:04:38Z</time>
      </trkpt>
      <trkpt lat="44.41079" lon="6.13541">
        <ele>1334</ele>
        <time>2017-08-18T12:04:53Z</time>
      </trkpt>
      <trkpt lat="44.41074" lon="6.13536">
        <ele>1334</ele>
        <time>2017-08-18T12:05:15Z</time>
      </trkpt>
      <trkpt lat="44.41069" lon="6.13523">
        <ele>1332</ele>
        <time>2017-08-18T12:05:34Z</time>
      </trkpt>
      <trkpt lat="44.41073" lon="6.13518">
        <ele>1330</ele>
        <time>2017-08-18T12:05:49Z</time>
      </trkpt>
      <trkpt lat="44.4107" lon="6.13511">
        <ele>1330</ele>
        <time>2017-08-18T12:06:04Z</time>
      </trkpt>
      <trkpt lat="44.41059" lon="6.13504">
        <ele>1329</ele>
        <time>2017-08-18T12:06:41Z</time>
      </trkpt>
      <trkpt lat="44.41069" lon="6.13499">
        <ele>1329</ele>
        <time>2017-08-18T12:07:08Z</time>
      </trkpt>
      <trkpt lat="44.41072" lon="6.13494">
        <ele>1329</ele>
        <time>2017-08-18T12:07:32Z</time>
      </trkpt>
      <trkpt lat="44.41076" lon="6.13482">
        <ele>1328</ele>
        <time>2017-08-18T12:07:52Z</time>
      </trkpt>
      <trkpt lat="44.41073" lon="6.13474">
        <ele>1325</ele>
        <time>2017-08-18T12:08:14Z</time>
      </trkpt>
      <trkpt lat="44.41076" lon="6.13475">
        <ele>1322</ele>
        <time>2017-08-18T12:08:32Z</time>
      </trkpt>
      <trkpt lat="44.41085" lon="6.13471">
        <ele>1320</ele>
        <time>2017-08-18T12:08:49Z</time>
      </trkpt>
      <trkpt lat="44.41086" lon="6.13472">
        <ele>1319</ele>
        <time>2017-08-18T12:08:54Z</time>
      </trkpt>
      <trkpt lat="44.41096" lon="6.13469">
        <ele>1320</ele>
        <time>2017-08-18T12:09:09Z</time>
      </trkpt>
      <trkpt lat="44.41101" lon="6.13468">
        <ele>1318</ele>
        <time>2017-08-18T12:09:21Z</time>
      </trkpt>
      <trkpt lat="44.41102" lon="6.13462">
        <ele>1317</ele>
        <time>2017-08-18T12:09:38Z</time>
      </trkpt>
      <trkpt lat="44.41112" lon="6.13459">
        <ele>1316</ele>
        <time>2017-08-18T12:09:54Z</time>
      </trkpt>
      <trkpt lat="44.41118" lon="6.1346">
        <ele>1314</ele>
        <time>2017-08-18T12:10:09Z</time>
      </trkpt>
      <trkpt lat="44.41117" lon="6.13458">
        <ele>1311</ele>
        <time>2017-08-18T12:10:27Z</time>
      </trkpt>
      <trkpt lat="44.41133" lon="6.13453">
        <ele>1309</ele>
        <time>2017-08-18T12:10:41Z</time>
      </trkpt>
      <trkpt lat="44.41145" lon="6.13449">
        <ele>1307</ele>
        <time>2017-08-18T12:10:55Z</time>
      </trkpt>
      <trkpt lat="44.41155" lon="6.13441">
        <ele>1305</ele>
        <time>2017-08-18T12:11:11Z</time>
      </trkpt>
      <trkpt lat="44.41151" lon="6.13428">
        <ele>1303</ele>
        <time>2017-08-18T12:11:30Z</time>
      </trkpt>
      <trkpt lat="44.41158" lon="6.13422">
        <ele>1302</ele>
        <time>2017-08-18T12:11:46Z</time>
      </trkpt>
      <trkpt lat="44.41168" lon="6.13418">
        <ele>1300</ele>
        <time>2017-08-18T12:12:01Z</time>
      </trkpt>
      <trkpt lat="44.41175" lon="6.13414">
        <ele>1299</ele>
        <time>2017-08-18T12:12:14Z</time>
      </trkpt>
      <trkpt lat="44.41185" lon="6.13417">
        <ele>1297</ele>
        <time>2017-08-18T12:12:32Z</time>
      </trkpt>
      <trkpt lat="44.41188" lon="6.13411">
        <ele>1296</ele>
        <time>2017-08-18T12:12:49Z</time>
      </trkpt>
      <trkpt lat="44.41196" lon="6.13406">
        <ele>1294</ele>
        <time>2017-08-18T12:13:03Z</time>
      </trkpt>
      <trkpt lat="44.41195" lon="6.13402">
        <ele>1292</ele>
        <time>2017-08-18T12:13:22Z</time>
      </trkpt>
      <trkpt lat="44.41198" lon="6.13398">
        <ele>1289</ele>
        <time>2017-08-18T12:13:48Z</time>
      </trkpt>
      <trkpt lat="44.412" lon="6.13398">
        <ele>1288</ele>
        <time>2017-08-18T12:13:53Z</time>
      </trkpt>
      <trkpt lat="44.41212" lon="6.134">
        <ele>1285</ele>
        <time>2017-08-18T12:14:11Z</time>
      </trkpt>
      <trkpt lat="44.41225" lon="6.13403">
        <ele>1282</ele>
        <time>2017-08-18T12:14:30Z</time>
      </trkpt>
      <trkpt lat="44.41233" lon="6.13398">
        <ele>1281</ele>
        <time>2017-08-18T12:14:42Z</time>
      </trkpt>
      <trkpt lat="44.4124" lon="6.13389">
        <ele>1277</ele>
        <time>2017-08-18T12:15:05Z</time>
      </trkpt>
      <trkpt lat="44.41243" lon="6.13389">
        <ele>1276</ele>
        <time>2017-08-18T12:15:12Z</time>
      </trkpt>
      <trkpt lat="44.41252" lon="6.13394">
        <ele>1273</ele>
        <time>2017-08-18T12:15:31Z</time>
      </trkpt>
      <trkpt lat="44.41258" lon="6.134">
        <ele>1270</ele>
        <time>2017-08-18T12:15:48Z</time>
      </trkpt>
      <trkpt lat="44.41257" lon="6.13409">
        <ele>1267</ele>
        <time>2017-08-18T12:16:06Z</time>
      </trkpt>
      <trkpt lat="44.41259" lon="6.1341">
        <ele>1267</ele>
        <time>2017-08-18T12:16:15Z</time>
      </trkpt>
      <trkpt lat="44.41283" lon="6.13419">
        <ele>1264</ele>
        <time>2017-08-18T12:16:33Z</time>
      </trkpt>
      <trkpt lat="44.4129" lon="6.1342">
        <ele>1263</ele>
        <time>2017-08-18T12:16:41Z</time>
      </trkpt>
      <trkpt lat="44.41317" lon="6.13422">
        <ele>1261</ele>
        <time>2017-08-18T12:17:07Z</time>
      </trkpt>
      <trkpt lat="44.41327" lon="6.13418">
        <ele>1260</ele>
        <time>2017-08-18T12:17:24Z</time>
      </trkpt>
      <trkpt lat="44.41342" lon="6.13409">
        <ele>1257</ele>
        <time>2017-08-18T12:17:44Z</time>
      </trkpt>
      <trkpt lat="44.41341" lon="6.13404">
        <ele>1254</ele>
        <time>2017-08-18T12:17:59Z</time>
      </trkpt>
      <trkpt lat="44.41358" lon="6.13397">
        <ele>1251</ele>
        <time>2017-08-18T12:18:19Z</time>
      </trkpt>
      <trkpt lat="44.41366" lon="6.1339">
        <ele>1250</ele>
        <time>2017-08-18T12:18:31Z</time>
      </trkpt>
      <trkpt lat="44.41371" lon="6.13384">
        <ele>1250</ele>
        <time>2017-08-18T12:18:44Z</time>
      </trkpt>
      <trkpt lat="44.4138" lon="6.13369">
        <ele>1249</ele>
        <time>2017-08-18T12:19:00Z</time>
      </trkpt>
      <trkpt lat="44.41381" lon="6.13361">
        <ele>1247</ele>
        <time>2017-08-18T12:19:19Z</time>
      </trkpt>
      <trkpt lat="44.41396" lon="6.13359">
        <ele>1245</ele>
        <time>2017-08-18T12:19:40Z</time>
      </trkpt>
      <trkpt lat="44.41421" lon="6.13355">
        <ele>1242</ele>
        <time>2017-08-18T12:20:05Z</time>
      </trkpt>
      <trkpt lat="44.41431" lon="6.13353">
        <ele>1239</ele>
        <time>2017-08-18T12:20:30Z</time>
      </trkpt>
      <trkpt lat="44.41438" lon="6.13354">
        <ele>1238</ele>
        <time>2017-08-18T12:21:05Z</time>
      </trkpt>
      <trkpt lat="44.41451" lon="6.13361">
        <ele>1235</ele>
        <time>2017-08-18T12:21:30Z</time>
      </trkpt>
      <trkpt lat="44.41456" lon="6.13373">
        <ele>1232</ele>
        <time>2017-08-18T12:21:52Z</time>
      </trkpt>
      <trkpt lat="44.41462" lon="6.13388">
        <ele>1229</ele>
        <time>2017-08-18T12:22:14Z</time>
      </trkpt>
      <trkpt lat="44.41462" lon="6.13405">
        <ele>1226</ele>
        <time>2017-08-18T12:22:40Z</time>
      </trkpt>
      <trkpt lat="44.41463" lon="6.13406">
        <ele>1226</ele>
        <time>2017-08-18T12:22:42Z</time>
      </trkpt>
      <trkpt lat="44.41463" lon="6.13423">
        <ele>1222</ele>
        <time>2017-08-18T12:23:05Z</time>
      </trkpt>
      <trkpt lat="44.41469" lon="6.13436">
        <ele>1219</ele>
        <time>2017-08-18T12:23:28Z</time>
      </trkpt>
      <trkpt lat="44.41473" lon="6.13444">
        <ele>1217</ele>
        <time>2017-08-18T12:23:42Z</time>
      </trkpt>
      <trkpt lat="44.41477" lon="6.13452">
        <ele>1214</ele>
        <time>2017-08-18T12:24:01Z</time>
      </trkpt>
      <trkpt lat="44.41479" lon="6.13457">
        <ele>1213</ele>
        <time>2017-08-18T12:24:06Z</time>
      </trkpt>
      <trkpt lat="44.41489" lon="6.13462">
        <ele>1211</ele>
        <time>2017-08-18T12:24:28Z</time>
      </trkpt>
      <trkpt lat="44.41495" lon="6.13453">
        <ele>1208</ele>
        <time>2017-08-18T12:24:44Z</time>
      </trkpt>
      <trkpt lat="44.41505" lon="6.13435">
        <ele>1204</ele>
        <time>2017-08-18T12:25:10Z</time>
      </trkpt>
      <trkpt lat="44.41514" lon="6.13416">
        <ele>1201</ele>
        <time>2017-08-18T12:25:31Z</time>
      </trkpt>
      <trkpt lat="44.41517" lon="6.134">
        <ele>1199</ele>
        <time>2017-08-18T12:25:53Z</time>
      </trkpt>
      <trkpt lat="44.41522" lon="6.13381">
        <ele>1196</ele>
        <time>2017-08-18T12:26:16Z</time>
      </trkpt>
      <trkpt lat="44.41524" lon="6.1338">
        <ele>1193</ele>
        <time>2017-08-18T12:26:42Z</time>
      </trkpt>
      <trkpt lat="44.41521" lon="6.13385">
        <ele>1192</ele>
        <time>2017-08-18T12:26:53Z</time>
      </trkpt>
      <trkpt lat="44.41525" lon="6.13396">
        <ele>1189</ele>
        <time>2017-08-18T12:27:12Z</time>
      </trkpt>
      <trkpt lat="44.41533" lon="6.13406">
        <ele>1187</ele>
        <time>2017-08-18T12:27:24Z</time>
      </trkpt>
      <trkpt lat="44.41535" lon="6.13407">
        <ele>1184</ele>
        <time>2017-08-18T12:27:48Z</time>
      </trkpt>
      <trkpt lat="44.4154" lon="6.13413">
        <ele>1182</ele>
        <time>2017-08-18T12:28:11Z</time>
      </trkpt>
      <trkpt lat="44.41544" lon="6.13423">
        <ele>1179</ele>
        <time>2017-08-18T12:28:34Z</time>
      </trkpt>
      <trkpt lat="44.41546" lon="6.13436">
        <ele>1176</ele>
        <time>2017-08-18T12:28:53Z</time>
      </trkpt>
      <trkpt lat="44.41548" lon="6.13447">
        <ele>1173</ele>
        <time>2017-08-18T12:29:12Z</time>
      </trkpt>
      <trkpt lat="44.41551" lon="6.1346">
        <ele>1170</ele>
        <time>2017-08-18T12:29:35Z</time>
      </trkpt>
      <trkpt lat="44.41557" lon="6.13479">
        <ele>1167</ele>
        <time>2017-08-18T12:29:57Z</time>
      </trkpt>
      <trkpt lat="44.41564" lon="6.13495">
        <ele>1164</ele>
        <time>2017-08-18T12:30:20Z</time>
      </trkpt>
      <trkpt lat="44.41567" lon="6.13509">
        <ele>1162</ele>
        <time>2017-08-18T12:30:46Z</time>
      </trkpt>
      <trkpt lat="44.41565" lon="6.13512">
        <ele>1161</ele>
        <time>2017-08-18T12:31:12Z</time>
      </trkpt>
      <trkpt lat="44.41559" lon="6.13514">
        <ele>1161</ele>
        <time>2017-08-18T12:31:40Z</time>
      </trkpt>
      <trkpt lat="44.41557" lon="6.13514">
        <ele>1161</ele>
        <time>2017-08-18T12:32:25Z</time>
      </trkpt>
      <trkpt lat="44.41562" lon="6.13504">
        <ele>1161</ele>
        <time>2017-08-18T12:32:42Z</time>
      </trkpt>
      <trkpt lat="44.41563" lon="6.13469">
        <ele>1159</ele>
        <time>2017-08-18T12:33:08Z</time>
      </trkpt>
      <trkpt lat="44.41568" lon="6.13466">
        <ele>1158</ele>
        <time>2017-08-18T12:33:25Z</time>
      </trkpt>
      <trkpt lat="44.41565" lon="6.1347">
        <ele>1157</ele>
        <time>2017-08-18T12:33:36Z</time>
      </trkpt>
      <trkpt lat="44.41559" lon="6.13488">
        <ele>1156</ele>
        <time>2017-08-18T12:34:01Z</time>
      </trkpt>
      <trkpt lat="44.41568" lon="6.13512">
        <ele>1155</ele>
        <time>2017-08-18T12:34:17Z</time>
      </trkpt>
      <trkpt lat="44.41571" lon="6.13514">
        <ele>1153</ele>
        <time>2017-08-18T12:34:36Z</time>
      </trkpt>
      <trkpt lat="44.41578" lon="6.13508">
        <ele>1150</ele>
        <time>2017-08-18T12:34:56Z</time>
      </trkpt>
      <trkpt lat="44.41579" lon="6.13501">
        <ele>1147</ele>
        <time>2017-08-18T12:35:19Z</time>
      </trkpt>
      <trkpt lat="44.4158" lon="6.13514">
        <ele>1144</ele>
        <time>2017-08-18T12:35:42Z</time>
      </trkpt>
      <trkpt lat="44.41591" lon="6.13538">
        <ele>1140</ele>
        <time>2017-08-18T12:36:05Z</time>
      </trkpt>
      <trkpt lat="44.41593" lon="6.13548">
        <ele>1137</ele>
        <time>2017-08-18T12:36:23Z</time>
      </trkpt>
      <trkpt lat="44.41599" lon="6.13564">
        <ele>1134</ele>
        <time>2017-08-18T12:36:45Z</time>
      </trkpt>
      <trkpt lat="44.41599" lon="6.13575">
        <ele>1132</ele>
        <time>2017-08-18T12:37:01Z</time>
      </trkpt>
      <trkpt lat="44.41602" lon="6.13597">
        <ele>1129</ele>
        <time>2017-08-18T12:37:23Z</time>
      </trkpt>
      <trkpt lat="44.41604" lon="6.13603">
        <ele>1127</ele>
        <time>2017-08-18T12:37:30Z</time>
      </trkpt>
      <trkpt lat="44.41613" lon="6.13618">
        <ele>1125</ele>
        <time>2017-08-18T12:37:47Z</time>
      </trkpt>
      <trkpt lat="44.41609" lon="6.13622">
        <ele>1125</ele>
        <time>2017-08-18T12:37:51Z</time>
      </trkpt>
      <trkpt lat="44.41612" lon="6.13626">
        <ele>1124</ele>
        <time>2017-08-18T12:37:55Z</time>
      </trkpt>
      <trkpt lat="44.41616" lon="6.13644">
        <ele>1122</ele>
        <time>2017-08-18T12:38:14Z</time>
      </trkpt>
      <trkpt lat="44.41618" lon="6.13647">
        <ele>1122</ele>
        <time>2017-08-18T12:38:17Z</time>
      </trkpt>
      <trkpt lat="44.41628" lon="6.13672">
        <ele>1119</ele>
        <time>2017-08-18T12:38:44Z</time>
      </trkpt>
      <trkpt lat="44.41633" lon="6.13693">
        <ele>1118</ele>
        <time>2017-08-18T12:39:05Z</time>
      </trkpt>
      <trkpt lat="44.41644" lon="6.13719">
        <ele>1115</ele>
        <time>2017-08-18T12:39:25Z</time>
      </trkpt>
      <trkpt lat="44.41656" lon="6.13728">
        <ele>1112</ele>
        <time>2017-08-18T12:39:43Z</time>
      </trkpt>
      <trkpt lat="44.41668" lon="6.13739">
        <ele>1109</ele>
        <time>2017-08-18T12:40:03Z</time>
      </trkpt>
      <trkpt lat="44.4168" lon="6.13747">
        <ele>1107</ele>
        <time>2017-08-18T12:40:27Z</time>
      </trkpt>
      <trkpt lat="44.41695" lon="6.13762">
        <ele>1104</ele>
        <time>2017-08-18T12:40:54Z</time>
      </trkpt>
      <trkpt lat="44.41698" lon="6.13765">
        <ele>1102</ele>
        <time>2017-08-18T12:41:00Z</time>
      </trkpt>
      <trkpt lat="44.41714" lon="6.13777">
        <ele>1099</ele>
        <time>2017-08-18T12:41:23Z</time>
      </trkpt>
      <trkpt lat="44.41728" lon="6.13791">
        <ele>1096</ele>
        <time>2017-08-18T12:41:43Z</time>
      </trkpt>
      <trkpt lat="44.41746" lon="6.13803">
        <ele>1093</ele>
        <time>2017-08-18T12:42:04Z</time>
      </trkpt>
      <trkpt lat="44.41766" lon="6.13819">
        <ele>1090</ele>
        <time>2017-08-18T12:42:30Z</time>
      </trkpt>
      <trkpt lat="44.41782" lon="6.1384">
        <ele>1089</ele>
        <time>2017-08-18T12:42:55Z</time>
      </trkpt>
      <trkpt lat="44.41784" lon="6.13866">
        <ele>1089</ele>
        <time>2017-08-18T12:43:17Z</time>
      </trkpt>
      <trkpt lat="44.41785" lon="6.13892">
        <ele>1089</ele>
        <time>2017-08-18T12:43:39Z</time>
      </trkpt>
      <trkpt lat="44.41784" lon="6.13927">
        <ele>1088</ele>
        <time>2017-08-18T12:44:05Z</time>
      </trkpt>
      <trkpt lat="44.41787" lon="6.13956">
        <ele>1089</ele>
        <time>2017-08-18T12:44:25Z</time>
      </trkpt>
      <trkpt lat="44.418" lon="6.13989">
        <ele>1088</ele>
        <time>2017-08-18T12:44:49Z</time>
      </trkpt>
      <trkpt lat="44.41805" lon="6.13999">
        <ele>1086</ele>
        <time>2017-08-18T12:45:01Z</time>
      </trkpt>
      <trkpt lat="44.41812" lon="6.14007">
        <ele>1083</ele>
        <time>2017-08-18T12:45:26Z</time>
      </trkpt>
      <trkpt lat="44.41817" lon="6.14026">
        <ele>1081</ele>
        <time>2017-08-18T12:45:51Z</time>
      </trkpt>
      <trkpt lat="44.41816" lon="6.14029">
        <ele>1080</ele>
        <time>2017-08-18T12:45:53Z</time>
      </trkpt>
      <trkpt lat="44.41823" lon="6.14039">
        <ele>1077</ele>
        <time>2017-08-18T12:46:17Z</time>
      </trkpt>
      <trkpt lat="44.41824" lon="6.14039">
        <ele>1074</ele>
        <time>2017-08-18T12:46:37Z</time>
      </trkpt>
      <trkpt lat="44.41826" lon="6.14053">
        <ele>1072</ele>
        <time>2017-08-18T12:47:02Z</time>
      </trkpt>
      <trkpt lat="44.41833" lon="6.14052">
        <ele>1069</ele>
        <time>2017-08-18T12:47:23Z</time>
      </trkpt>
      <trkpt lat="44.41831" lon="6.14052">
        <ele>1066</ele>
        <time>2017-08-18T12:47:45Z</time>
      </trkpt>
      <trkpt lat="44.41833" lon="6.14064">
        <ele>1063</ele>
        <time>2017-08-18T12:48:08Z</time>
      </trkpt>
      <trkpt lat="44.41842" lon="6.14068">
        <ele>1061</ele>
        <time>2017-08-18T12:48:30Z</time>
      </trkpt>
      <trkpt lat="44.41845" lon="6.14062">
        <ele>1058</ele>
        <time>2017-08-18T12:48:52Z</time>
      </trkpt>
      <trkpt lat="44.4185" lon="6.14053">
        <ele>1056</ele>
        <time>2017-08-18T12:49:21Z</time>
      </trkpt>
      <trkpt lat="44.41856" lon="6.1405">
        <ele>1054</ele>
        <time>2017-08-18T12:49:45Z</time>
      </trkpt>
      <trkpt lat="44.41859" lon="6.14042">
        <ele>1051</ele>
        <time>2017-08-18T12:50:10Z</time>
      </trkpt>
      <trkpt lat="44.41865" lon="6.14039">
        <ele>1048</ele>
        <time>2017-08-18T12:50:36Z</time>
      </trkpt>
      <trkpt lat="44.41868" lon="6.14023">
        <ele>1046</ele>
        <time>2017-08-18T12:51:05Z</time>
      </trkpt>
      <trkpt lat="44.4187" lon="6.13999">
        <ele>1044</ele>
        <time>2017-08-18T12:51:28Z</time>
      </trkpt>
      <trkpt lat="44.41874" lon="6.1398">
        <ele>1041</ele>
        <time>2017-08-18T12:51:51Z</time>
      </trkpt>
      <trkpt lat="44.41868" lon="6.13982">
        <ele>1039</ele>
        <time>2017-08-18T12:52:11Z</time>
      </trkpt>
      <trkpt lat="44.41873" lon="6.13987">
        <ele>1038</ele>
        <time>2017-08-18T12:52:16Z</time>
      </trkpt>
      <trkpt lat="44.41875" lon="6.13989">
        <ele>1038</ele>
        <time>2017-08-18T12:52:18Z</time>
      </trkpt>
      <trkpt lat="44.41881" lon="6.13988">
        <ele>1035</ele>
        <time>2017-08-18T12:52:38Z</time>
      </trkpt>
      <trkpt lat="44.41883" lon="6.13982">
        <ele>1032</ele>
        <time>2017-08-18T12:53:06Z</time>
      </trkpt>
      <trkpt lat="44.41885" lon="6.13991">
        <ele>1029</ele>
        <time>2017-08-18T12:53:30Z</time>
      </trkpt>
      <trkpt lat="44.41893" lon="6.14002">
        <ele>1026</ele>
        <time>2017-08-18T12:53:55Z</time>
      </trkpt>
      <trkpt lat="44.41898" lon="6.14014">
        <ele>1023</ele>
        <time>2017-08-18T12:54:21Z</time>
      </trkpt>
      <trkpt lat="44.41903" lon="6.14024">
        <ele>1020</ele>
        <time>2017-08-18T12:54:41Z</time>
      </trkpt>
      <trkpt lat="44.41914" lon="6.14034">
        <ele>1018</ele>
        <time>2017-08-18T12:55:01Z</time>
      </trkpt>
      <trkpt lat="44.41914" lon="6.1402">
        <ele>1015</ele>
        <time>2017-08-18T12:55:22Z</time>
      </trkpt>
      <trkpt lat="44.41917" lon="6.14015">
        <ele>1012</ele>
        <time>2017-08-18T12:55:51Z</time>
      </trkpt>
      <trkpt lat="44.41925" lon="6.1402">
        <ele>1009</ele>
        <time>2017-08-18T12:56:21Z</time>
      </trkpt>
      <trkpt lat="44.41929" lon="6.14026">
        <ele>1007</ele>
        <time>2017-08-18T12:56:41Z</time>
      </trkpt>
      <trkpt lat="44.4193" lon="6.14025">
        <ele>1004</ele>
        <time>2017-08-18T12:57:04Z</time>
      </trkpt>
      <trkpt lat="44.41935" lon="6.14041">
        <ele>1001</ele>
        <time>2017-08-18T12:57:25Z</time>
      </trkpt>
      <trkpt lat="44.41941" lon="6.14058">
        <ele>999</ele>
        <time>2017-08-18T12:57:51Z</time>
      </trkpt>
      <trkpt lat="44.41948" lon="6.1407">
        <ele>997</ele>
        <time>2017-08-18T12:58:19Z</time>
      </trkpt>
      <trkpt lat="44.41953" lon="6.14052">
        <ele>995</ele>
        <time>2017-08-18T12:58:40Z</time>
      </trkpt>
      <trkpt lat="44.41954" lon="6.14048">
        <ele>995</ele>
        <time>2017-08-18T12:58:42Z</time>
      </trkpt>
      <trkpt lat="44.41955" lon="6.14006">
        <ele>993</ele>
        <time>2017-08-18T12:59:08Z</time>
      </trkpt>
      <trkpt lat="44.41953" lon="6.13971">
        <ele>991</ele>
        <time>2017-08-18T12:59:36Z</time>
      </trkpt>
      <trkpt lat="44.41952" lon="6.13959">
        <ele>991</ele>
        <time>2017-08-18T12:59:55Z</time>
      </trkpt>
      <trkpt lat="44.41954" lon="6.13953">
        <ele>991</ele>
        <time>2017-08-18T13:00:13Z</time>
      </trkpt>
      <trkpt lat="44.41961" lon="6.13955">
        <ele>991</ele>
        <time>2017-08-18T13:00:47Z</time>
      </trkpt>
      <trkpt lat="44.41964" lon="6.13959">
        <ele>990</ele>
        <time>2017-08-18T13:01:21Z</time>
      </trkpt>
      <trkpt lat="44.41967" lon="6.13963">
        <ele>990</ele>
        <time>2017-08-18T13:01:46Z</time>
      </trkpt>
      <trkpt lat="44.41966" lon="6.13974">
        <ele>990</ele>
        <time>2017-08-18T13:01:56Z</time>
      </trkpt>
      <trkpt lat="44.41969" lon="6.13995">
        <ele>988</ele>
        <time>2017-08-18T13:02:15Z</time>
      </trkpt>
      <trkpt lat="44.41988" lon="6.14029">
        <ele>987</ele>
        <time>2017-08-18T13:02:39Z</time>
      </trkpt>
      <trkpt lat="44.42001" lon="6.14058">
        <ele>985</ele>
        <time>2017-08-18T13:03:00Z</time>
      </trkpt>
      <trkpt lat="44.42012" lon="6.14092">
        <ele>983</ele>
        <time>2017-08-18T13:03:25Z</time>
      </trkpt>
      <trkpt lat="44.42015" lon="6.14106">
        <ele>981</ele>
        <time>2017-08-18T13:03:32Z</time>
      </trkpt>
      <trkpt lat="44.42015" lon="6.14107">
        <ele>981</ele>
        <time>2017-08-18T13:03:36Z</time>
      </trkpt>
      <trkpt lat="44.42015" lon="6.14117">
        <ele>980</ele>
        <time>2017-08-18T13:03:51Z</time>
      </trkpt>
      <trkpt lat="44.42013" lon="6.14144">
        <ele>978</ele>
        <time>2017-08-18T13:04:14Z</time>
      </trkpt>
      <trkpt lat="44.42008" lon="6.14175">
        <ele>977</ele>
        <time>2017-08-18T13:04:35Z</time>
      </trkpt>
      <trkpt lat="44.42003" lon="6.14192">
        <ele>976</ele>
        <time>2017-08-18T13:04:51Z</time>
      </trkpt>
      <trkpt lat="44.41995" lon="6.14218">
        <ele>974</ele>
        <time>2017-08-18T13:05:17Z</time>
      </trkpt>
      <trkpt lat="44.41984" lon="6.14248">
        <ele>972</ele>
        <time>2017-08-18T13:05:39Z</time>
      </trkpt>
      <trkpt lat="44.41979" lon="6.1427">
        <ele>970</ele>
        <time>2017-08-18T13:06:02Z</time>
      </trkpt>
      <trkpt lat="44.41978" lon="6.14299">
        <ele>967</ele>
        <time>2017-08-18T13:06:25Z</time>
      </trkpt>
      <trkpt lat="44.41976" lon="6.14333">
        <ele>965</ele>
        <time>2017-08-18T13:06:50Z</time>
      </trkpt>
      <trkpt lat="44.41978" lon="6.14348">
        <ele>964</ele>
        <time>2017-08-18T13:07:00Z</time>
      </trkpt>
      <trkpt lat="44.41986" lon="6.14384">
        <ele>962</ele>
        <time>2017-08-18T13:07:24Z</time>
      </trkpt>
      <trkpt lat="44.41988" lon="6.1441">
        <ele>961</ele>
        <time>2017-08-18T13:07:39Z</time>
      </trkpt>
      <trkpt lat="44.41991" lon="6.14445">
        <ele>960</ele>
        <time>2017-08-18T13:07:58Z</time>
      </trkpt>
      <trkpt lat="44.41987" lon="6.14468">
        <ele>959</ele>
        <time>2017-08-18T13:08:16Z</time>
      </trkpt>
      <trkpt lat="44.41986" lon="6.14474">
        <ele>959</ele>
        <time>2017-08-18T13:08:21Z</time>
      </trkpt>
      <trkpt lat="44.41984" lon="6.14504">
        <ele>958</ele>
        <time>2017-08-18T13:08:46Z</time>
      </trkpt>
      <trkpt lat="44.41987" lon="6.14496">
        <ele>957</ele>
        <time>2017-08-18T13:08:52Z</time>
      </trkpt>
      <trkpt lat="44.41989" lon="6.14509">
        <ele>957</ele>
        <time>2017-08-18T13:08:57Z</time>
      </trkpt>
      <trkpt lat="44.41988" lon="6.14525">
        <ele>956</ele>
        <time>2017-08-18T13:09:10Z</time>
      </trkpt>
      <trkpt lat="44.41988" lon="6.14527">
        <ele>956</ele>
        <time>2017-08-18T13:09:11Z</time>
      </trkpt>
      <trkpt lat="44.41987" lon="6.1454">
        <ele>956</ele>
        <time>2017-08-18T13:09:21Z</time>
      </trkpt>
      <trkpt lat="44.41986" lon="6.14545">
        <ele>956</ele>
        <time>2017-08-18T13:09:24Z</time>
      </trkpt>
      <trkpt lat="44.41988" lon="6.14591">
        <ele>955</ele>
        <time>2017-08-18T13:09:52Z</time>
      </trkpt>
      <trkpt lat="44.4199" lon="6.14634">
        <ele>954</ele>
        <time>2017-08-18T13:10:19Z</time>
      </trkpt>
      <trkpt lat="44.41996" lon="6.14673">
        <ele>954</ele>
        <time>2017-08-18T13:10:40Z</time>
      </trkpt>
      <trkpt lat="44.41995" lon="6.14681">
        <ele>953</ele>
        <time>2017-08-18T13:10:44Z</time>
      </trkpt>
      <trkpt lat="44.41996" lon="6.1471">
        <ele>952</ele>
        <time>2017-08-18T13:11:02Z</time>
      </trkpt>
      <trkpt lat="44.41994" lon="6.14716">
        <ele>952</ele>
        <time>2017-08-18T13:11:06Z</time>
      </trkpt>
      <trkpt lat="44.41992" lon="6.1474">
        <ele>951</ele>
        <time>2017-08-18T13:11:21Z</time>
      </trkpt>
      <trkpt lat="44.41986" lon="6.14761">
        <ele>950</ele>
        <time>2017-08-18T13:11:35Z</time>
      </trkpt>
      <trkpt lat="44.41984" lon="6.14779">
        <ele>950</ele>
        <time>2017-08-18T13:11:46Z</time>
      </trkpt>
      <trkpt lat="44.41982" lon="6.1479">
        <ele>950</ele>
        <time>2017-08-18T13:11:53Z</time>
      </trkpt>
      <trkpt lat="44.41983" lon="6.14798">
        <ele>950</ele>
        <time>2017-08-18T13:11:57Z</time>
      </trkpt>
      <trkpt lat="44.4198" lon="6.14826">
        <ele>950</ele>
        <time>2017-08-18T13:12:14Z</time>
      </trkpt>
      <trkpt lat="44.41978" lon="6.14831">
        <ele>950</ele>
        <time>2017-08-18T13:12:18Z</time>
      </trkpt>
      <trkpt lat="44.41975" lon="6.14841">
        <ele>950</ele>
        <time>2017-08-18T13:12:25Z</time>
      </trkpt>
      <trkpt lat="44.41975" lon="6.14848">
        <ele>949</ele>
        <time>2017-08-18T13:12:29Z</time>
      </trkpt>
      <trkpt lat="44.41978" lon="6.14859">
        <ele>949</ele>
        <time>2017-08-18T13:12:34Z</time>
      </trkpt>
      <trkpt lat="44.41979" lon="6.14863">
        <ele>949</ele>
        <time>2017-08-18T13:12:36Z</time>
      </trkpt>
      <trkpt lat="44.41988" lon="6.14893">
        <ele>948</ele>
        <time>2017-08-18T13:12:54Z</time>
      </trkpt>
      <trkpt lat="44.41986" lon="6.14901">
        <ele>948</ele>
        <time>2017-08-18T13:13:02Z</time>
      </trkpt>
      <trkpt lat="44.41983" lon="6.14911">
        <ele>949</ele>
        <time>2017-08-18T13:13:16Z</time>
      </trkpt>
      <trkpt lat="44.41978" lon="6.14918">
        <ele>949</ele>
        <time>2017-08-18T13:13:24Z</time>
      </trkpt>
      <trkpt lat="44.4196" lon="6.14929">
        <ele>952</ele>
        <time>2017-08-18T13:13:42Z</time>
      </trkpt>
      <trkpt lat="44.41958" lon="6.14929">
        <ele>952</ele>
        <time>2017-08-18T13:13:43Z</time>
      </trkpt>
      <trkpt lat="44.41952" lon="6.14942">
        <ele>954</ele>
        <time>2017-08-18T13:13:54Z</time>
      </trkpt>
      <trkpt lat="44.41951" lon="6.14948">
        <ele>954</ele>
        <time>2017-08-18T13:13:58Z</time>
      </trkpt>
      <trkpt lat="44.41948" lon="6.1497">
        <ele>955</ele>
        <time>2017-08-18T13:14:15Z</time>
      </trkpt>
      <trkpt lat="44.41951" lon="6.14997">
        <ele>957</ele>
        <time>2017-08-18T13:14:35Z</time>
      </trkpt>
      <trkpt lat="44.41955" lon="6.15028">
        <ele>958</ele>
        <time>2017-08-18T13:14:59Z</time>
      </trkpt>
      <trkpt lat="44.41955" lon="6.15031">
        <ele>958</ele>
        <time>2017-08-18T13:15:02Z</time>
      </trkpt>
      <trkpt lat="44.41956" lon="6.15077">
        <ele>959</ele>
        <time>2017-08-18T13:15:29Z</time>
      </trkpt>
      <trkpt lat="44.41956" lon="6.15079">
        <ele>959</ele>
        <time>2017-08-18T13:15:30Z</time>
      </trkpt>
      <trkpt lat="44.41959" lon="6.15088">
        <ele>959</ele>
        <time>2017-08-18T13:15:35Z</time>
      </trkpt>
      <trkpt lat="44.41962" lon="6.15098">
        <ele>958</ele>
        <time>2017-08-18T13:15:41Z</time>
      </trkpt>
      <trkpt lat="44.41968" lon="6.15118">
        <ele>958</ele>
        <time>2017-08-18T13:15:56Z</time>
      </trkpt>
      <trkpt lat="44.41973" lon="6.1513">
        <ele>958</ele>
        <time>2017-08-18T13:16:04Z</time>
      </trkpt>
      <trkpt lat="44.41975" lon="6.15149">
        <ele>958</ele>
        <time>2017-08-18T13:16:19Z</time>
      </trkpt>
      <trkpt lat="44.41972" lon="6.1517">
        <ele>959</ele>
        <time>2017-08-18T13:16:35Z</time>
      </trkpt>
      <trkpt lat="44.41972" lon="6.15171">
        <ele>959</ele>
        <time>2017-08-18T13:16:36Z</time>
      </trkpt>
      <trkpt lat="44.41965" lon="6.15198">
        <ele>958</ele>
        <time>2017-08-18T13:16:55Z</time>
      </trkpt>
      <trkpt lat="44.41955" lon="6.15226">
        <ele>957</ele>
        <time>2017-08-18T13:17:14Z</time>
      </trkpt>
      <trkpt lat="44.4195" lon="6.15251">
        <ele>956</ele>
        <time>2017-08-18T13:17:31Z</time>
      </trkpt>
      <trkpt lat="44.41946" lon="6.15277">
        <ele>955</ele>
        <time>2017-08-18T13:17:49Z</time>
      </trkpt>
      <trkpt lat="44.41946" lon="6.15284">
        <ele>955</ele>
        <time>2017-08-18T13:17:53Z</time>
      </trkpt>
      <trkpt lat="44.41941" lon="6.15304">
        <ele>954</ele>
        <time>2017-08-18T13:18:08Z</time>
      </trkpt>
      <trkpt lat="44.41942" lon="6.15308">
        <ele>954</ele>
        <time>2017-08-18T13:18:10Z</time>
      </trkpt>
      <trkpt lat="44.41939" lon="6.15327">
        <ele>953</ele>
        <time>2017-08-18T13:18:23Z</time>
      </trkpt>
      <trkpt lat="44.41936" lon="6.15336">
        <ele>953</ele>
        <time>2017-08-18T13:18:30Z</time>
      </trkpt>
      <trkpt lat="44.41935" lon="6.15342">
        <ele>953</ele>
        <time>2017-08-18T13:18:34Z</time>
      </trkpt>
      <trkpt lat="44.41934" lon="6.15361">
        <ele>952</ele>
        <time>2017-08-18T13:18:46Z</time>
      </trkpt>
      <trkpt lat="44.41928" lon="6.15396">
        <ele>950</ele>
        <time>2017-08-18T13:19:08Z</time>
      </trkpt>
      <trkpt lat="44.41921" lon="6.15425">
        <ele>949</ele>
        <time>2017-08-18T13:19:27Z</time>
      </trkpt>
      <trkpt lat="44.4192" lon="6.15442">
        <ele>949</ele>
        <time>2017-08-18T13:19:38Z</time>
      </trkpt>
      <trkpt lat="44.41918" lon="6.15447">
        <ele>948</ele>
        <time>2017-08-18T13:19:42Z</time>
      </trkpt>
      <trkpt lat="44.41917" lon="6.1546">
        <ele>948</ele>
        <time>2017-08-18T13:19:50Z</time>
      </trkpt>
      <trkpt lat="44.41916" lon="6.1547">
        <ele>948</ele>
        <time>2017-08-18T13:19:57Z</time>
      </trkpt>
      <trkpt lat="44.41913" lon="6.15492">
        <ele>947</ele>
        <time>2017-08-18T13:20:11Z</time>
      </trkpt>
      <trkpt lat="44.4191" lon="6.15502">
        <ele>946</ele>
        <time>2017-08-18T13:20:19Z</time>
      </trkpt>
      <trkpt lat="44.41909" lon="6.15508">
        <ele>946</ele>
        <time>2017-08-18T13:20:23Z</time>
      </trkpt>
      <trkpt lat="44.41906" lon="6.15532">
        <ele>945</ele>
        <time>2017-08-18T13:20:39Z</time>
      </trkpt>
      <trkpt lat="44.41903" lon="6.15546">
        <ele>945</ele>
        <time>2017-08-18T13:20:48Z</time>
      </trkpt>
      <trkpt lat="44.41903" lon="6.15555">
        <ele>944</ele>
        <time>2017-08-18T13:20:54Z</time>
      </trkpt>
      <trkpt lat="44.41902" lon="6.15568">
        <ele>944</ele>
        <time>2017-08-18T13:21:02Z</time>
      </trkpt>
      <trkpt lat="44.41901" lon="6.15579">
        <ele>944</ele>
        <time>2017-08-18T13:21:09Z</time>
      </trkpt>
      <trkpt lat="44.41899" lon="6.15591">
        <ele>943</ele>
        <time>2017-08-18T13:21:17Z</time>
      </trkpt>
      <trkpt lat="44.41897" lon="6.15603">
        <ele>943</ele>
        <time>2017-08-18T13:21:25Z</time>
      </trkpt>
      <trkpt lat="44.41898" lon="6.1561">
        <ele>942</ele>
        <time>2017-08-18T13:21:29Z</time>
      </trkpt>
      <trkpt lat="44.41897" lon="6.15632">
        <ele>942</ele>
        <time>2017-08-18T13:21:45Z</time>
      </trkpt>
      <trkpt lat="44.41899" lon="6.15644">
        <ele>941</ele>
        <time>2017-08-18T13:21:53Z</time>
      </trkpt>
      <trkpt lat="44.41898" lon="6.15651">
        <ele>941</ele>
        <time>2017-08-18T13:21:57Z</time>
      </trkpt>
      <trkpt lat="44.41901" lon="6.15678">
        <ele>940</ele>
        <time>2017-08-18T13:22:15Z</time>
      </trkpt>
      <trkpt lat="44.41901" lon="6.15694">
        <ele>939</ele>
        <time>2017-08-18T13:22:27Z</time>
      </trkpt>
      <trkpt lat="44.41905" lon="6.15717">
        <ele>939</ele>
        <time>2017-08-18T13:22:42Z</time>
      </trkpt>
      <trkpt lat="44.41906" lon="6.15747">
        <ele>938</ele>
        <time>2017-08-18T13:23:03Z</time>
      </trkpt>
      <trkpt lat="44.41905" lon="6.1575">
        <ele>938</ele>
        <time>2017-08-18T13:23:05Z</time>
      </trkpt>
      <trkpt lat="44.41904" lon="6.15764">
        <ele>937</ele>
        <time>2017-08-18T13:23:15Z</time>
      </trkpt>
      <trkpt lat="44.41903" lon="6.15773">
        <ele>937</ele>
        <time>2017-08-18T13:23:22Z</time>
      </trkpt>
      <trkpt lat="44.41903" lon="6.15787">
        <ele>936</ele>
        <time>2017-08-18T13:23:31Z</time>
      </trkpt>
      <trkpt lat="44.41901" lon="6.1581">
        <ele>935</ele>
        <time>2017-08-18T13:23:47Z</time>
      </trkpt>
      <trkpt lat="44.41901" lon="6.15812">
        <ele>935</ele>
        <time>2017-08-18T13:23:48Z</time>
      </trkpt>
      <trkpt lat="44.41898" lon="6.15834">
        <ele>934</ele>
        <time>2017-08-18T13:24:05Z</time>
      </trkpt>
      <trkpt lat="44.41897" lon="6.15871">
        <ele>933</ele>
        <time>2017-08-18T13:24:28Z</time>
      </trkpt>
      <trkpt lat="44.41898" lon="6.15882">
        <ele>933</ele>
        <time>2017-08-18T13:24:35Z</time>
      </trkpt>
      <trkpt lat="44.41898" lon="6.15884">
        <ele>933</ele>
        <time>2017-08-18T13:24:37Z</time>
      </trkpt>
      <trkpt lat="44.41895" lon="6.15924">
        <ele>932</ele>
        <time>2017-08-18T13:25:01Z</time>
      </trkpt>
      <trkpt lat="44.41893" lon="6.15963">
        <ele>931</ele>
        <time>2017-08-18T13:25:26Z</time>
      </trkpt>
      <trkpt lat="44.41882" lon="6.15999">
        <ele>931</ele>
        <time>2017-08-18T13:25:52Z</time>
      </trkpt>
      <trkpt lat="44.41872" lon="6.16031">
        <ele>931</ele>
        <time>2017-08-18T13:26:17Z</time>
      </trkpt>
      <trkpt lat="44.41866" lon="6.16057">
        <ele>931</ele>
        <time>2017-08-18T13:26:35Z</time>
      </trkpt>
      <trkpt lat="44.41864" lon="6.16067">
        <ele>930</ele>
        <time>2017-08-18T13:26:43Z</time>
      </trkpt>
      <trkpt lat="44.41863" lon="6.16086">
        <ele>930</ele>
        <time>2017-08-18T13:26:59Z</time>
      </trkpt>
      <trkpt lat="44.4186" lon="6.16082">
        <ele>930</ele>
        <time>2017-08-18T13:27:16Z</time>
      </trkpt>
      <trkpt lat="44.41859" lon="6.16084">
        <ele>930</ele>
        <time>2017-08-18T13:27:35Z</time>
      </trkpt>
    </trkseg>
  </trk>
</gpx>